QTR900 OTHH-YPPH
Flight info
| Callsign | QTR900 |
|---|---|
| Flight time | 9h 45m |
| Altitude | 29000 |
| Route | DATRI L564 MIGMA/N0509F330 DCT ALROK DCT DAPOL L692 GISKA N569 GOLNI P570 KITAL L894 DONSA/N0503F350 L894 BIBGO DCT SUNAN L894 DADAR DCT 05S082E/N0497F370 10S087E DCT RUNUT DCT 18S097E 21S100E/N0489F390 DCT SINAM DCT OPEGA T12 KAGMI |
| Aircraft | A35K/H-SDE2E3GHIJ3J4J5LM1ORWXY/LB1D1 |
Departure
| Time | 2026-05-05 10:54 |
|---|---|
| Airport | Hamad International Airport (OTHH) |
Arrival
| Time | 2026-05-05 20:39 |
|---|---|
| Airport | Perth International Airport (YPPH) |
| Time | Latitude | Longitude | Altitude | Speed | Heading |
|---|---|---|---|---|---|
| 2026-05-05 10:08 | 25.26712 | 51.60832 | 36 ft | 0 kts | 23° |
| 2026-05-05 10:17 | 25.26682 | 51.60907 | 36 ft | 0 kts | 23° |
| 2026-05-05 10:38 | 25.26671 | 51.60901 | 36 ft | 4 kts | 23° |
| 2026-05-05 10:38 | 25.26648 | 51.60890 | 35 ft | 4 kts | 23° |
| 2026-05-05 10:39 | 25.26628 | 51.60881 | 33 ft | 4 kts | 26° |
| 2026-05-05 10:39 | 25.26610 | 51.60866 | 32 ft | 4 kts | 70° |
| 2026-05-05 10:39 | 25.26609 | 51.60841 | 32 ft | 4 kts | 111° |
| 2026-05-05 10:39 | 25.26619 | 51.60816 | 33 ft | 4 kts | 113° |
| 2026-05-05 10:40 | 25.26625 | 51.60800 | 33 ft | 0 kts | 113° |
| 2026-05-05 10:47 | 25.26624 | 51.60802 | 33 ft | 1 kts | 113° |
| 2026-05-05 10:47 | 25.26620 | 51.60812 | 33 ft | 2 kts | 113° |
| 2026-05-05 10:47 | 25.26613 | 51.60832 | 33 ft | 4 kts | 113° |
| 2026-05-05 10:47 | 25.26598 | 51.60870 | 34 ft | 7 kts | 113° |
| 2026-05-05 10:48 | 25.26571 | 51.60928 | 36 ft | 9 kts | 130° |
| 2026-05-05 10:48 | 25.26509 | 51.60965 | 36 ft | 11 kts | 157° |
| 2026-05-05 10:48 | 25.26429 | 51.61001 | 36 ft | 13 kts | 158° |
| 2026-05-05 10:48 | 25.26336 | 51.61043 | 36 ft | 15 kts | 158° |
| 2026-05-05 10:49 | 25.26234 | 51.61055 | 36 ft | 15 kts | 216° |
| 2026-05-05 10:49 | 25.26192 | 51.60954 | 36 ft | 15 kts | 249° |
| 2026-05-05 10:49 | 25.26153 | 51.60846 | 36 ft | 15 kts | 248° |
| 2026-05-05 10:49 | 25.26112 | 51.60735 | 36 ft | 16 kts | 248° |
| 2026-05-05 10:50 | 25.26069 | 51.60618 | 36 ft | 17 kts | 248° |
| 2026-05-05 10:50 | 25.26011 | 51.60546 | 35 ft | 12 kts | 187° |
| 2026-05-05 10:50 | 25.25929 | 51.60572 | 35 ft | 13 kts | 158° |
| 2026-05-05 10:50 | 25.25843 | 51.60611 | 35 ft | 14 kts | 158° |
| 2026-05-05 10:51 | 25.25748 | 51.60653 | 35 ft | 15 kts | 158° |
| 2026-05-05 10:51 | 25.25651 | 51.60695 | 35 ft | 14 kts | 167° |
| 2026-05-05 10:51 | 25.25585 | 51.60634 | 33 ft | 14 kts | 252° |
| 2026-05-05 10:51 | 25.25605 | 51.60522 | 31 ft | 16 kts | 311° |
| 2026-05-05 10:52 | 25.25644 | 51.60497 | 31 ft | 0 kts | 337° |
| 2026-05-05 10:52 | 25.25647 | 51.60496 | 31 ft | 1 kts | 337° |
| 2026-05-05 10:52 | 25.25655 | 51.60492 | 31 ft | 3 kts | 338° |
| 2026-05-05 10:52 | 25.25865 | 51.60399 | 34 ft | 68 kts | 338° |
| 2026-05-05 10:53 | 25.26506 | 51.60117 | 32 ft | 131 kts | 338° |
| 2026-05-05 10:53 | 25.27535 | 51.59663 | 32 ft | 186 kts | 339° |
| 2026-05-05 10:53 | 25.28875 | 51.59070 | 133 ft | 226 kts | 340° |
| 2026-05-05 10:53 | 25.30458 | 51.58389 | 366 ft | 261 kts | 340° |
| 2026-05-05 10:54 | 25.32142 | 51.57655 | 1315 ft | 255 kts | 338° |
| 2026-05-05 10:54 | 25.33812 | 51.56907 | 2244 ft | 262 kts | 338° |
| 2026-05-05 10:54 | 25.35527 | 51.56138 | 3097 ft | 271 kts | 338° |
| 2026-05-05 10:54 | 25.37339 | 51.55329 | 3648 ft | 292 kts | 339° |
| 2026-05-05 10:55 | 25.39309 | 51.54453 | 3949 ft | 322 kts | 339° |
| 2026-05-05 10:55 | 25.41402 | 51.53529 | 4070 ft | 317 kts | 339° |
| 2026-05-05 10:55 | 25.43408 | 51.52643 | 4613 ft | 304 kts | 339° |
| 2026-05-05 10:55 | 25.45321 | 51.51741 | 5402 ft | 295 kts | 334° |
| 2026-05-05 10:56 | 25.46950 | 51.50429 | 6219 ft | 289 kts | 314° |
| 2026-05-05 10:56 | 25.48018 | 51.48568 | 6869 ft | 287 kts | 292° |
| 2026-05-05 10:56 | 25.48381 | 51.46403 | 7467 ft | 288 kts | 272° |
| 2026-05-05 10:56 | 25.48317 | 51.44186 | 8063 ft | 288 kts | 268° |
| 2026-05-05 10:57 | 25.48197 | 51.41971 | 8651 ft | 289 kts | 268° |
| 2026-05-05 10:57 | 25.48081 | 51.39748 | 9235 ft | 290 kts | 268° |
| 2026-05-05 10:57 | 25.47973 | 51.37514 | 9838 ft | 291 kts | 269° |
| 2026-05-05 10:57 | 25.47870 | 51.35301 | 10383 ft | 292 kts | 269° |
| 2026-05-05 10:58 | 25.47766 | 51.33027 | 10987 ft | 292 kts | 268° |
| 2026-05-05 10:58 | 25.47667 | 51.30810 | 11632 ft | 292 kts | 268° |
| 2026-05-05 10:58 | 25.47375 | 51.28581 | 12201 ft | 296 kts | 253° |
| 2026-05-05 10:58 | 25.46317 | 51.26623 | 12743 ft | 303 kts | 226° |
| 2026-05-05 10:59 | 25.44486 | 51.25390 | 13056 ft | 321 kts | 199° |
| 2026-05-05 10:59 | 25.42198 | 51.25103 | 13293 ft | 340 kts | 181° |
| 2026-05-05 10:59 | 25.39783 | 51.25182 | 13536 ft | 354 kts | 180° |
| 2026-05-05 10:59 | 25.37271 | 51.25279 | 13721 ft | 368 kts | 180° |
| 2026-05-05 11:00 | 25.34671 | 51.25353 | 13925 ft | 380 kts | 181° |
| 2026-05-05 11:00 | 25.31987 | 51.25408 | 14123 ft | 391 kts | 181° |
| 2026-05-05 11:00 | 25.29228 | 51.25458 | 14312 ft | 402 kts | 181° |
| 2026-05-05 11:00 | 25.26407 | 51.25839 | 14474 ft | 416 kts | 167° |
| 2026-05-05 11:01 | 25.23667 | 51.26848 | 14750 ft | 423 kts | 161° |
| 2026-05-05 11:01 | 25.20909 | 51.28024 | 15132 ft | 426 kts | 160° |
| 2026-05-05 11:01 | 25.18136 | 51.29215 | 15554 ft | 428 kts | 161° |
| 2026-05-05 11:01 | 25.15355 | 51.30402 | 15996 ft | 429 kts | 161° |
| 2026-05-05 11:02 | 25.12562 | 51.31587 | 16424 ft | 431 kts | 161° |
| 2026-05-05 11:02 | 25.09757 | 51.32772 | 16838 ft | 432 kts | 161° |
| 2026-05-05 11:02 | 25.06939 | 51.33961 | 17233 ft | 435 kts | 161° |
| 2026-05-05 11:02 | 25.04109 | 51.35158 | 17625 ft | 437 kts | 161° |
| 2026-05-05 11:03 | 25.01264 | 51.36354 | 18051 ft | 438 kts | 161° |
| 2026-05-05 11:03 | 24.98411 | 51.37553 | 18383 ft | 440 kts | 161° |
| 2026-05-05 11:03 | 24.95541 | 51.38758 | 18693 ft | 443 kts | 161° |
| 2026-05-05 11:03 | 24.92710 | 51.40128 | 18991 ft | 448 kts | 152° |
| 2026-05-05 11:04 | 24.90083 | 51.41992 | 19316 ft | 451 kts | 147° |
| 2026-05-05 11:04 | 24.88384 | 51.43316 | 19529 ft | 453 kts | 146° |
| 2026-05-05 11:04 | 24.85819 | 51.45338 | 19933 ft | 453 kts | 146° |
| 2026-05-05 11:04 | 24.83242 | 51.47366 | 20177 ft | 458 kts | 146° |
| 2026-05-05 11:05 | 24.80639 | 51.49407 | 20478 ft | 461 kts | 146° |
| 2026-05-05 11:05 | 24.78023 | 51.51453 | 20805 ft | 463 kts | 146° |
| 2026-05-05 11:05 | 24.74377 | 51.53978 | 21249 ft | 464 kts | 156° |
| 2026-05-05 11:05 | 24.72395 | 51.54871 | 21467 ft | 463 kts | 164° |
| 2026-05-05 11:06 | 24.69251 | 51.55613 | 21776 ft | 462 kts | 176° |
| 2026-05-05 11:06 | 24.66044 | 51.55604 | 22090 ft | 461 kts | 188° |
| 2026-05-05 11:06 | 24.62868 | 51.55094 | 22418 ft | 462 kts | 192° |
| 2026-05-05 11:06 | 24.59705 | 51.54395 | 22749 ft | 464 kts | 194° |
| 2026-05-05 11:07 | 24.56546 | 51.53609 | 23084 ft | 467 kts | 195° |
| 2026-05-05 11:07 | 24.53415 | 51.52807 | 23390 ft | 469 kts | 195° |
| 2026-05-05 11:07 | 24.50229 | 51.51999 | 23675 ft | 471 kts | 195° |
| 2026-05-05 11:07 | 24.47028 | 51.51206 | 23985 ft | 472 kts | 195° |
| 2026-05-05 11:08 | 24.43809 | 51.50426 | 24297 ft | 473 kts | 194° |
| 2026-05-05 11:08 | 24.40578 | 51.49657 | 24598 ft | 475 kts | 194° |
| 2026-05-05 11:08 | 24.37337 | 51.48892 | 24899 ft | 477 kts | 194° |
| 2026-05-05 11:08 | 24.34087 | 51.48129 | 25224 ft | 478 kts | 194° |
| 2026-05-05 11:09 | 24.30832 | 51.47366 | 25554 ft | 480 kts | 195° |
| 2026-05-05 11:09 | 24.27559 | 51.46599 | 25901 ft | 482 kts | 195° |
| 2026-05-05 11:09 | 24.24276 | 51.45838 | 26264 ft | 484 kts | 194° |
| 2026-05-05 11:09 | 24.20917 | 51.45355 | 26610 ft | 489 kts | 186° |
| 2026-05-05 11:10 | 24.17512 | 51.45205 | 26956 ft | 492 kts | 185° |
| 2026-05-05 11:10 | 24.14073 | 51.45154 | 27282 ft | 494 kts | 183° |
| 2026-05-05 11:10 | 24.10662 | 51.45158 | 27591 ft | 497 kts | 183° |
| 2026-05-05 11:10 | 24.07198 | 51.45186 | 27924 ft | 499 kts | 183° |
| 2026-05-05 11:11 | 24.03712 | 51.45219 | 28249 ft | 501 kts | 183° |
| 2026-05-05 11:11 | 24.00218 | 51.45249 | 28557 ft | 503 kts | 183° |
| 2026-05-05 11:11 | 23.96711 | 51.45272 | 28733 ft | 506 kts | 183° |
| 2026-05-05 11:12 | 23.89656 | 51.45303 | 28738 ft | 509 kts | 183° |
| 2026-05-05 11:12 | 23.82564 | 51.45327 | 28747 ft | 510 kts | 183° |
| 2026-05-05 11:13 | 23.75461 | 51.45351 | 28746 ft | 510 kts | 183° |
| 2026-05-05 11:13 | 23.68350 | 51.45375 | 28744 ft | 510 kts | 183° |
| 2026-05-05 11:14 | 23.61245 | 51.45398 | 28741 ft | 511 kts | 183° |
| 2026-05-05 11:14 | 23.54126 | 51.45422 | 28738 ft | 511 kts | 183° |
| 2026-05-05 11:15 | 23.47054 | 51.45447 | 28736 ft | 511 kts | 183° |
| 2026-05-05 11:15 | 23.39936 | 51.45536 | 28732 ft | 512 kts | 182° |
| 2026-05-05 11:16 | 23.32796 | 51.45663 | 28733 ft | 513 kts | 182° |
| 2026-05-05 11:16 | 23.25645 | 51.45786 | 28733 ft | 513 kts | 182° |
| 2026-05-05 11:17 | 23.18512 | 51.45903 | 29137 ft | 510 kts | 182° |
| 2026-05-05 11:17 | 23.14987 | 51.45954 | 29764 ft | 504 kts | 182° |
| 2026-05-05 11:17 | 23.11482 | 51.46000 | 30172 ft | 502 kts | 182° |
| 2026-05-05 11:17 | 23.07984 | 51.46045 | 30503 ft | 502 kts | 182° |
| 2026-05-05 11:18 | 23.04493 | 51.46089 | 30850 ft | 501 kts | 182° |
| 2026-05-05 11:18 | 23.01015 | 51.46135 | 31186 ft | 499 kts | 182° |
| 2026-05-05 11:18 | 22.97588 | 51.46181 | 31526 ft | 498 kts | 182° |
| 2026-05-05 11:18 | 22.94126 | 51.46240 | 31856 ft | 498 kts | 181° |
| 2026-05-05 11:19 | 22.90667 | 51.46623 | 32154 ft | 501 kts | 173° |
| 2026-05-05 11:19 | 22.87282 | 51.47557 | 32451 ft | 505 kts | 164° |
| 2026-05-05 11:19 | 22.84060 | 51.49099 | 32741 ft | 509 kts | 154° |
| 2026-05-05 11:19 | 22.81107 | 51.51254 | 33008 ft | 514 kts | 143° |
| 2026-05-05 11:20 | 22.78532 | 51.53960 | 33230 ft | 518 kts | 135° |
| 2026-05-05 11:20 | 22.76173 | 51.56918 | 33495 ft | 519 kts | 133° |
| 2026-05-05 11:20 | 22.73888 | 51.59953 | 33709 ft | 521 kts | 131° |
| 2026-05-05 11:21 | 22.69337 | 51.66134 | 33722 ft | 528 kts | 131° |
| 2026-05-05 11:21 | 22.64751 | 51.72313 | 34047 ft | 522 kts | 131° |
| 2026-05-05 11:21 | 22.62474 | 51.75351 | 34420 ft | 518 kts | 132° |
| 2026-05-05 11:22 | 22.60200 | 51.78370 | 34688 ft | 516 kts | 132° |
| 2026-05-05 11:22 | 22.57961 | 51.81333 | 34906 ft | 515 kts | 132° |
| 2026-05-05 11:22 | 22.55688 | 51.84336 | 35079 ft | 515 kts | 132° |
| 2026-05-05 11:22 | 22.53417 | 51.87333 | 35262 ft | 515 kts | 132° |
| 2026-05-05 11:23 | 22.51143 | 51.90334 | 35435 ft | 514 kts | 132° |
| 2026-05-05 11:23 | 22.48879 | 51.93321 | 35658 ft | 513 kts | 132° |
| 2026-05-05 11:23 | 22.46607 | 51.96318 | 35720 ft | 516 kts | 132° |
| 2026-05-05 11:24 | 22.42036 | 52.02340 | 35718 ft | 519 kts | 132° |
| 2026-05-05 11:24 | 22.37457 | 52.08372 | 35714 ft | 519 kts | 132° |
| 2026-05-05 11:25 | 22.32874 | 52.14400 | 35717 ft | 519 kts | 132° |
| 2026-05-05 11:25 | 22.28295 | 52.20416 | 35711 ft | 518 kts | 132° |
| 2026-05-05 11:26 | 22.23719 | 52.26423 | 35716 ft | 518 kts | 132° |
| 2026-05-05 11:26 | 22.19125 | 52.32443 | 35716 ft | 523 kts | 132° |
| 2026-05-05 11:27 | 22.14469 | 52.38536 | 35711 ft | 528 kts | 132° |
| 2026-05-05 11:27 | 22.09779 | 52.44669 | 35707 ft | 532 kts | 132° |
| 2026-05-05 11:28 | 22.05060 | 52.50836 | 35710 ft | 533 kts | 132° |
| 2026-05-05 11:28 | 22.00332 | 52.57006 | 35711 ft | 534 kts | 132° |
| 2026-05-05 11:29 | 21.95626 | 52.63140 | 35710 ft | 534 kts | 132° |
| 2026-05-05 11:29 | 21.91518 | 52.69816 | 35710 ft | 538 kts | 116° |
| 2026-05-05 11:29 | 21.90245 | 52.73609 | 35710 ft | 541 kts | 105° |
| 2026-05-05 11:30 | 21.89603 | 52.77616 | 35709 ft | 542 kts | 97° |
| 2026-05-05 11:30 | 21.89024 | 52.85720 | 35708 ft | 544 kts | 94° |
| 2026-05-05 11:31 | 21.88637 | 52.93805 | 35710 ft | 544 kts | 94° |
| 2026-05-05 11:31 | 21.88226 | 53.01944 | 35709 ft | 544 kts | 94° |
| 2026-05-05 11:32 | 21.87774 | 53.10083 | 35709 ft | 545 kts | 94° |
| 2026-05-05 11:32 | 21.87302 | 53.18224 | 35708 ft | 545 kts | 94° |
| 2026-05-05 11:33 | 21.86825 | 53.26358 | 35707 ft | 544 kts | 94° |
| 2026-05-05 11:33 | 21.86345 | 53.34498 | 35708 ft | 545 kts | 94° |
| 2026-05-05 11:34 | 21.85862 | 53.42646 | 35704 ft | 544 kts | 94° |
| 2026-05-05 11:34 | 21.85376 | 53.50773 | 35705 ft | 544 kts | 94° |
| 2026-05-05 11:35 | 21.84887 | 53.58893 | 35704 ft | 544 kts | 94° |
| 2026-05-05 11:35 | 21.84397 | 53.66959 | 35704 ft | 544 kts | 94° |
| 2026-05-05 11:36 | 21.83899 | 53.75080 | 35708 ft | 543 kts | 94° |
| 2026-05-05 11:36 | 21.83398 | 53.83202 | 35705 ft | 544 kts | 94° |
| 2026-05-05 11:37 | 21.82892 | 53.91319 | 35708 ft | 544 kts | 94° |
| 2026-05-05 11:37 | 21.82383 | 53.99439 | 35706 ft | 544 kts | 94° |
| 2026-05-05 11:38 | 21.81869 | 54.07562 | 35705 ft | 544 kts | 94° |
| 2026-05-05 11:38 | 21.81350 | 54.15693 | 35704 ft | 544 kts | 94° |
| 2026-05-05 11:39 | 21.80828 | 54.23820 | 35699 ft | 544 kts | 94° |
| 2026-05-05 11:39 | 21.80304 | 54.31925 | 35706 ft | 543 kts | 94° |
| 2026-05-05 11:40 | 21.79776 | 54.40026 | 35706 ft | 543 kts | 94° |
| 2026-05-05 11:40 | 21.79247 | 54.48075 | 35706 ft | 543 kts | 94° |
| 2026-05-05 11:41 | 21.78711 | 54.56176 | 35706 ft | 543 kts | 94° |
| 2026-05-05 11:41 | 21.78170 | 54.64281 | 35706 ft | 543 kts | 95° |
| 2026-05-05 11:42 | 21.77626 | 54.72386 | 35708 ft | 543 kts | 95° |
| 2026-05-05 11:42 | 21.77077 | 54.80490 | 35709 ft | 543 kts | 95° |
| 2026-05-05 11:43 | 21.76525 | 54.88598 | 35710 ft | 543 kts | 95° |
| 2026-05-05 11:43 | 21.75968 | 54.96703 | 35711 ft | 543 kts | 95° |
| 2026-05-05 11:44 | 21.75408 | 55.04806 | 35705 ft | 543 kts | 95° |
| 2026-05-05 11:44 | 21.74844 | 55.12906 | 35711 ft | 542 kts | 95° |
| 2026-05-05 11:45 | 21.74281 | 55.20931 | 35716 ft | 542 kts | 95° |
| 2026-05-05 11:45 | 21.73710 | 55.29012 | 35718 ft | 542 kts | 95° |
| 2026-05-05 11:46 | 21.73136 | 55.37092 | 35719 ft | 542 kts | 95° |
| 2026-05-05 11:46 | 21.72557 | 55.45177 | 35716 ft | 542 kts | 95° |
| 2026-05-05 11:47 | 21.71973 | 55.53269 | 35719 ft | 542 kts | 95° |
| 2026-05-05 11:47 | 21.71409 | 55.61353 | 35725 ft | 542 kts | 94° |
| 2026-05-05 11:48 | 21.70734 | 55.73494 | 35724 ft | 542 kts | 93° |
| 2026-05-05 11:48 | 21.70283 | 55.81591 | 35728 ft | 542 kts | 94° |
| 2026-05-05 11:49 | 21.69815 | 55.89682 | 35733 ft | 542 kts | 94° |
| 2026-05-05 11:49 | 21.69339 | 55.97721 | 35727 ft | 542 kts | 94° |
| 2026-05-05 11:50 | 21.68856 | 56.05811 | 35733 ft | 541 kts | 94° |
| 2026-05-05 11:50 | 21.68453 | 56.12516 | 35736 ft | 540 kts | 94° |
| 2026-05-05 11:51 | 21.67966 | 56.20574 | 35735 ft | 540 kts | 94° |
| 2026-05-05 11:51 | 21.67475 | 56.28636 | 35735 ft | 540 kts | 94° |
| 2026-05-05 11:52 | 21.66980 | 56.36689 | 35736 ft | 540 kts | 94° |
| 2026-05-05 11:52 | 21.66480 | 56.44756 | 35738 ft | 540 kts | 94° |
| 2026-05-05 11:53 | 21.65978 | 56.52815 | 35741 ft | 540 kts | 94° |
| 2026-05-05 11:53 | 21.65471 | 56.60871 | 35741 ft | 540 kts | 94° |
| 2026-05-05 11:54 | 21.64960 | 56.68933 | 35746 ft | 540 kts | 94° |
| 2026-05-05 11:54 | 21.64445 | 56.76996 | 35747 ft | 540 kts | 94° |
| 2026-05-05 11:55 | 21.63930 | 56.85010 | 35746 ft | 540 kts | 94° |
| 2026-05-05 11:55 | 21.63407 | 56.93074 | 35746 ft | 541 kts | 94° |
| 2026-05-05 11:56 | 21.62880 | 57.01141 | 35752 ft | 541 kts | 94° |
| 2026-05-05 11:56 | 21.62348 | 57.09216 | 35755 ft | 541 kts | 94° |
| 2026-05-05 11:57 | 21.61814 | 57.17282 | 35755 ft | 541 kts | 94° |
| 2026-05-05 11:57 | 21.61276 | 57.25303 | 35755 ft | 541 kts | 94° |
| 2026-05-05 11:58 | 21.60732 | 57.33368 | 35757 ft | 541 kts | 94° |
| 2026-05-05 11:58 | 21.60184 | 57.41439 | 35760 ft | 541 kts | 94° |
| 2026-05-05 11:59 | 21.59631 | 57.49517 | 35766 ft | 542 kts | 94° |
| 2026-05-05 11:59 | 21.59075 | 57.57593 | 35766 ft | 542 kts | 94° |
| 2026-05-05 12:00 | 21.58433 | 57.65669 | 35766 ft | 542 kts | 99° |
| 2026-05-05 12:00 | 21.56648 | 57.73469 | 35768 ft | 542 kts | 106° |
| 2026-05-05 12:01 | 21.54489 | 57.81243 | 35758 ft | 542 kts | 107° |
| 2026-05-05 12:01 | 21.52283 | 57.88969 | 35763 ft | 540 kts | 107° |
| 2026-05-05 12:02 | 21.50091 | 57.96684 | 35764 ft | 540 kts | 107° |
| 2026-05-05 12:02 | 21.47908 | 58.04403 | 35760 ft | 540 kts | 107° |
| 2026-05-05 12:03 | 21.45724 | 58.12129 | 35760 ft | 539 kts | 107° |
| 2026-05-05 12:03 | 21.43555 | 58.19789 | 35763 ft | 541 kts | 107° |
| 2026-05-05 12:04 | 21.41357 | 58.27530 | 35771 ft | 542 kts | 107° |
| 2026-05-05 12:04 | 21.39155 | 58.35273 | 35771 ft | 542 kts | 107° |
| 2026-05-05 12:05 | 21.36952 | 58.42999 | 35776 ft | 541 kts | 107° |
| 2026-05-05 12:05 | 21.34749 | 58.50716 | 35785 ft | 541 kts | 107° |
| 2026-05-05 12:06 | 21.32557 | 58.58378 | 35782 ft | 541 kts | 107° |
| 2026-05-05 12:06 | 21.30345 | 58.66098 | 35791 ft | 541 kts | 107° |
| 2026-05-05 12:07 | 21.28138 | 58.73782 | 35792 ft | 532 kts | 107° |
| 2026-05-05 12:07 | 21.25950 | 58.81397 | 35795 ft | 536 kts | 107° |
| 2026-05-05 12:08 | 21.23748 | 58.89043 | 35795 ft | 538 kts | 107° |
| 2026-05-05 12:08 | 21.21527 | 58.96715 | 35791 ft | 539 kts | 107° |
| 2026-05-05 12:09 | 21.19306 | 59.04381 | 35792 ft | 538 kts | 107° |
| 2026-05-05 12:09 | 21.17088 | 59.12027 | 35793 ft | 538 kts | 107° |
| 2026-05-05 12:10 | 21.14881 | 59.19624 | 35791 ft | 537 kts | 107° |
| 2026-05-05 12:10 | 21.12655 | 59.27270 | 35790 ft | 537 kts | 107° |
| 2026-05-05 12:11 | 21.10429 | 59.34905 | 35789 ft | 537 kts | 107° |
| 2026-05-05 12:11 | 21.08196 | 59.42547 | 35787 ft | 538 kts | 107° |
| 2026-05-05 12:12 | 21.05961 | 59.50182 | 35790 ft | 538 kts | 107° |
| 2026-05-05 12:12 | 21.03719 | 59.57826 | 35790 ft | 536 kts | 107° |
| 2026-05-05 12:13 | 21.01021 | 59.65228 | 35794 ft | 535 kts | 120° |
| 2026-05-05 12:13 | 20.96368 | 59.71377 | 35793 ft | 532 kts | 141° |
| 2026-05-05 12:14 | 20.90261 | 59.75825 | 35795 ft | 531 kts | 149° |
| 2026-05-05 12:14 | 20.83900 | 59.79857 | 35796 ft | 531 kts | 150° |
| 2026-05-05 12:15 | 20.77522 | 59.83855 | 35796 ft | 531 kts | 150° |
| 2026-05-05 12:15 | 20.71169 | 59.87886 | 35799 ft | 531 kts | 150° |
| 2026-05-05 12:16 | 20.64819 | 59.91943 | 35796 ft | 531 kts | 150° |
| 2026-05-05 12:16 | 20.58519 | 59.95970 | 35799 ft | 531 kts | 150° |
| 2026-05-05 12:17 | 20.52181 | 60.00015 | 35798 ft | 530 kts | 150° |
| 2026-05-05 12:17 | 20.45855 | 60.04048 | 35799 ft | 529 kts | 150° |
| 2026-05-05 12:18 | 20.39529 | 60.08076 | 35801 ft | 529 kts | 150° |
| 2026-05-05 12:18 | 20.33200 | 60.12102 | 35801 ft | 529 kts | 150° |
| 2026-05-05 12:19 | 20.26877 | 60.16120 | 35801 ft | 529 kts | 150° |
| 2026-05-05 12:19 | 20.20557 | 60.20133 | 35804 ft | 528 kts | 150° |
| 2026-05-05 12:20 | 20.14242 | 60.24139 | 35804 ft | 528 kts | 150° |
| 2026-05-05 12:20 | 20.07926 | 60.28142 | 35804 ft | 528 kts | 150° |
| 2026-05-05 12:21 | 20.02083 | 60.32782 | 35806 ft | 529 kts | 140° |
| 2026-05-05 12:21 | 19.96552 | 60.37954 | 35807 ft | 529 kts | 139° |
| 2026-05-05 12:22 | 19.91079 | 60.43198 | 35810 ft | 529 kts | 139° |
| 2026-05-05 12:22 | 19.85601 | 60.48435 | 35810 ft | 529 kts | 139° |
| 2026-05-05 12:23 | 19.80115 | 60.53652 | 35812 ft | 530 kts | 139° |
| 2026-05-05 12:23 | 19.74615 | 60.58865 | 35812 ft | 530 kts | 139° |
| 2026-05-05 12:24 | 19.69111 | 60.64077 | 35812 ft | 530 kts | 139° |
| 2026-05-05 12:24 | 19.63600 | 60.69292 | 35812 ft | 530 kts | 139° |
| 2026-05-05 12:25 | 19.58128 | 60.74465 | 35815 ft | 530 kts | 139° |
| 2026-05-05 12:25 | 19.52618 | 60.79669 | 35815 ft | 530 kts | 139° |
| 2026-05-05 12:26 | 19.47108 | 60.84868 | 35810 ft | 530 kts | 139° |
| 2026-05-05 12:26 | 19.41587 | 60.90073 | 35812 ft | 530 kts | 139° |
| 2026-05-05 12:27 | 19.36072 | 60.95267 | 35813 ft | 530 kts | 139° |
| 2026-05-05 12:27 | 19.30585 | 61.00429 | 35812 ft | 530 kts | 139° |
| 2026-05-05 12:28 | 19.25073 | 61.05611 | 35815 ft | 530 kts | 139° |
| 2026-05-05 12:28 | 19.19549 | 61.10798 | 35815 ft | 530 kts | 139° |
| 2026-05-05 12:29 | 19.14072 | 61.15938 | 35821 ft | 523 kts | 139° |
| 2026-05-05 12:29 | 19.08602 | 61.21065 | 35817 ft | 527 kts | 139° |
| 2026-05-05 12:30 | 19.03106 | 61.26212 | 35820 ft | 529 kts | 139° |
| 2026-05-05 12:30 | 18.97623 | 61.31342 | 35820 ft | 530 kts | 139° |
| 2026-05-05 12:31 | 18.92100 | 61.36505 | 35822 ft | 530 kts | 139° |
| 2026-05-05 12:31 | 18.86575 | 61.41665 | 35821 ft | 531 kts | 139° |
| 2026-05-05 12:32 | 18.81037 | 61.46833 | 35821 ft | 531 kts | 139° |
| 2026-05-05 12:32 | 18.75506 | 61.51989 | 35823 ft | 530 kts | 139° |
| 2026-05-05 12:33 | 18.69972 | 61.57144 | 35824 ft | 530 kts | 139° |
| 2026-05-05 12:33 | 18.64437 | 61.62294 | 35823 ft | 530 kts | 139° |
| 2026-05-05 12:34 | 18.58943 | 61.67402 | 35823 ft | 530 kts | 139° |
| 2026-05-05 12:34 | 18.53413 | 61.72539 | 35826 ft | 530 kts | 139° |
| 2026-05-05 12:35 | 18.47878 | 61.77676 | 35826 ft | 530 kts | 139° |
| 2026-05-05 12:35 | 18.42342 | 61.82809 | 35826 ft | 530 kts | 139° |
| 2026-05-05 12:36 | 18.36806 | 61.87937 | 35827 ft | 530 kts | 139° |
| 2026-05-05 12:36 | 18.31268 | 61.93064 | 35828 ft | 530 kts | 139° |
| 2026-05-05 12:37 | 18.25731 | 61.98184 | 35828 ft | 530 kts | 139° |
| 2026-05-05 12:37 | 18.20179 | 62.03312 | 35832 ft | 529 kts | 139° |
| 2026-05-05 12:38 | 18.14654 | 62.08413 | 35829 ft | 530 kts | 139° |
| 2026-05-05 12:38 | 18.09113 | 62.13524 | 35833 ft | 530 kts | 139° |
| 2026-05-05 12:39 | 18.04493 | 62.17781 | 35832 ft | 530 kts | 139° |
| 2026-05-05 12:39 | 17.98970 | 62.22867 | 35835 ft | 529 kts | 139° |
| 2026-05-05 12:40 | 17.93433 | 62.27962 | 35835 ft | 530 kts | 139° |
| 2026-05-05 12:40 | 17.87857 | 62.33086 | 35834 ft | 530 kts | 139° |
| 2026-05-05 12:41 | 17.82321 | 62.38171 | 35834 ft | 529 kts | 139° |
| 2026-05-05 12:41 | 17.76796 | 62.43241 | 35838 ft | 529 kts | 139° |
| 2026-05-05 12:42 | 17.71238 | 62.48338 | 35839 ft | 530 kts | 139° |
| 2026-05-05 12:42 | 17.65702 | 62.53408 | 35839 ft | 529 kts | 139° |
| 2026-05-05 12:43 | 17.60167 | 62.58475 | 35837 ft | 529 kts | 139° |
| 2026-05-05 12:43 | 17.54622 | 62.63546 | 35842 ft | 529 kts | 139° |
| 2026-05-05 12:44 | 17.49077 | 62.68613 | 35841 ft | 529 kts | 139° |
| 2026-05-05 12:44 | 17.43533 | 62.73674 | 35840 ft | 528 kts | 139° |
| 2026-05-05 12:45 | 17.37988 | 62.78733 | 35844 ft | 528 kts | 139° |
| 2026-05-05 12:45 | 17.32447 | 62.83784 | 35843 ft | 528 kts | 139° |
| 2026-05-05 12:46 | 17.26897 | 62.88838 | 35840 ft | 529 kts | 139° |
| 2026-05-05 12:46 | 17.21387 | 62.93851 | 35839 ft | 528 kts | 139° |
| 2026-05-05 12:47 | 17.15839 | 62.98896 | 35838 ft | 528 kts | 139° |
| 2026-05-05 12:47 | 17.10284 | 63.03942 | 35840 ft | 529 kts | 139° |
| 2026-05-05 12:48 | 17.04730 | 63.08984 | 35845 ft | 528 kts | 139° |
| 2026-05-05 12:48 | 16.99175 | 63.14012 | 35846 ft | 528 kts | 140° |
| 2026-05-05 12:49 | 16.93533 | 63.18924 | 35849 ft | 528 kts | 141° |
| 2026-05-05 12:49 | 16.87853 | 63.23801 | 35847 ft | 528 kts | 141° |
| 2026-05-05 12:50 | 16.82180 | 63.28692 | 35850 ft | 528 kts | 140° |
| 2026-05-05 12:50 | 16.76525 | 63.33585 | 35851 ft | 528 kts | 141° |
| 2026-05-05 12:51 | 16.70903 | 63.38453 | 35851 ft | 529 kts | 141° |
| 2026-05-05 12:51 | 16.65239 | 63.43352 | 35851 ft | 529 kts | 141° |
| 2026-05-05 12:52 | 16.59571 | 63.48250 | 35852 ft | 529 kts | 140° |
| 2026-05-05 12:52 | 16.53904 | 63.53142 | 35851 ft | 528 kts | 140° |
| 2026-05-05 12:53 | 16.48237 | 63.58030 | 35850 ft | 529 kts | 140° |
| 2026-05-05 12:53 | 16.42562 | 63.62923 | 35850 ft | 529 kts | 140° |
| 2026-05-05 12:54 | 16.34061 | 63.70243 | 35854 ft | 528 kts | 140° |
| 2026-05-05 12:55 | 16.28431 | 63.75086 | 35849 ft | 528 kts | 140° |
| 2026-05-05 12:55 | 16.22758 | 63.79963 | 35855 ft | 530 kts | 140° |
| 2026-05-05 12:56 | 16.17085 | 63.84837 | 35855 ft | 529 kts | 140° |
| 2026-05-05 12:56 | 16.11420 | 63.89699 | 35852 ft | 528 kts | 140° |
| 2026-05-05 12:57 | 16.05753 | 63.94560 | 35854 ft | 528 kts | 140° |
| 2026-05-05 12:57 | 16.00074 | 63.99426 | 35852 ft | 528 kts | 140° |
| 2026-05-05 12:58 | 15.94398 | 64.04287 | 35855 ft | 527 kts | 140° |
| 2026-05-05 12:58 | 15.88772 | 64.09102 | 35854 ft | 526 kts | 140° |
| 2026-05-05 12:59 | 15.83115 | 64.13939 | 35853 ft | 527 kts | 140° |
| 2026-05-05 12:59 | 15.77443 | 64.18786 | 35855 ft | 528 kts | 140° |
| 2026-05-05 13:00 | 15.68934 | 64.26049 | 35858 ft | 526 kts | 140° |
| 2026-05-05 13:01 | 15.57621 | 64.35694 | 35856 ft | 526 kts | 140° |
| 2026-05-05 13:01 | 15.51990 | 64.40489 | 35858 ft | 527 kts | 140° |
| 2026-05-05 13:02 | 15.46328 | 64.45307 | 35858 ft | 527 kts | 140° |
| 2026-05-05 13:02 | 15.40677 | 64.50112 | 35862 ft | 525 kts | 140° |
| 2026-05-05 13:03 | 15.35019 | 64.54920 | 35862 ft | 525 kts | 140° |
| 2026-05-05 13:03 | 15.29371 | 64.59716 | 35861 ft | 525 kts | 140° |
| 2026-05-05 13:04 | 15.23716 | 64.64515 | 35861 ft | 525 kts | 140° |
| 2026-05-05 13:04 | 15.18105 | 64.69272 | 35861 ft | 524 kts | 140° |
| 2026-05-05 13:05 | 15.12465 | 64.74050 | 35863 ft | 524 kts | 140° |
| 2026-05-05 13:05 | 15.06820 | 64.78830 | 35862 ft | 524 kts | 140° |
| 2026-05-05 13:06 | 15.01172 | 64.83610 | 35862 ft | 524 kts | 140° |
| 2026-05-05 13:06 | 14.95530 | 64.88381 | 35861 ft | 523 kts | 140° |
| 2026-05-05 13:07 | 14.89888 | 64.93147 | 35862 ft | 524 kts | 140° |
| 2026-05-05 13:07 | 14.84238 | 64.97916 | 35863 ft | 523 kts | 140° |
| 2026-05-05 13:08 | 14.78635 | 65.02644 | 35861 ft | 523 kts | 140° |
| 2026-05-05 13:08 | 14.73000 | 65.07396 | 35863 ft | 523 kts | 140° |
| 2026-05-05 13:09 | 14.67365 | 65.12145 | 35865 ft | 522 kts | 140° |
| 2026-05-05 13:09 | 14.61739 | 65.16882 | 35864 ft | 522 kts | 140° |
| 2026-05-05 13:10 | 14.56109 | 65.21620 | 35867 ft | 522 kts | 140° |
| 2026-05-05 13:10 | 14.50474 | 65.26355 | 35867 ft | 521 kts | 140° |
| 2026-05-05 13:11 | 14.44855 | 65.31071 | 35868 ft | 520 kts | 140° |
| 2026-05-05 13:11 | 14.39236 | 65.35785 | 35867 ft | 521 kts | 140° |
| 2026-05-05 13:12 | 14.33610 | 65.40503 | 35869 ft | 521 kts | 140° |
| 2026-05-05 13:12 | 14.27980 | 65.45221 | 35868 ft | 521 kts | 140° |
| 2026-05-05 13:13 | 14.22368 | 65.49921 | 35865 ft | 519 kts | 140° |
| 2026-05-05 13:13 | 14.16800 | 65.54582 | 35868 ft | 519 kts | 140° |
| 2026-05-05 13:14 | 14.11199 | 65.59266 | 35867 ft | 518 kts | 140° |
| 2026-05-05 13:14 | 14.05587 | 65.63956 | 35868 ft | 519 kts | 140° |
| 2026-05-05 13:15 | 13.99981 | 65.68641 | 35867 ft | 519 kts | 140° |
| 2026-05-05 13:15 | 13.94372 | 65.73323 | 35867 ft | 519 kts | 140° |
| 2026-05-05 13:16 | 13.88778 | 65.77989 | 35870 ft | 519 kts | 140° |
| 2026-05-05 13:16 | 13.83173 | 65.82661 | 35870 ft | 519 kts | 140° |
| 2026-05-05 13:17 | 13.77556 | 65.87341 | 35870 ft | 519 kts | 140° |
| 2026-05-05 13:17 | 13.71942 | 65.92016 | 35870 ft | 519 kts | 140° |
| 2026-05-05 13:18 | 13.66323 | 65.96693 | 35868 ft | 519 kts | 140° |
| 2026-05-05 13:18 | 13.60712 | 66.01358 | 35869 ft | 518 kts | 140° |
| 2026-05-05 13:19 | 13.55138 | 66.05990 | 35867 ft | 518 kts | 140° |
| 2026-05-05 13:19 | 13.49534 | 66.10646 | 35867 ft | 518 kts | 140° |
| 2026-05-05 13:20 | 13.43932 | 66.15296 | 35868 ft | 518 kts | 140° |
| 2026-05-05 13:20 | 13.38329 | 66.19944 | 35868 ft | 518 kts | 140° |
| 2026-05-05 13:21 | 13.32732 | 66.24584 | 35869 ft | 517 kts | 140° |
| 2026-05-05 13:21 | 13.27135 | 66.29219 | 35870 ft | 516 kts | 140° |
| 2026-05-05 13:22 | 13.21543 | 66.33850 | 35869 ft | 517 kts | 140° |
| 2026-05-05 13:22 | 13.15972 | 66.38460 | 35870 ft | 517 kts | 140° |
| 2026-05-05 13:23 | 13.10376 | 66.43088 | 35872 ft | 517 kts | 140° |
| 2026-05-05 13:23 | 13.04774 | 66.47718 | 35873 ft | 517 kts | 140° |
| 2026-05-05 13:24 | 12.99179 | 66.52339 | 35871 ft | 516 kts | 140° |
| 2026-05-05 13:24 | 12.93589 | 66.56955 | 35870 ft | 516 kts | 140° |
| 2026-05-05 13:25 | 12.87992 | 66.61572 | 35871 ft | 516 kts | 140° |
| 2026-05-05 13:25 | 12.82397 | 66.66185 | 35870 ft | 517 kts | 140° |
| 2026-05-05 13:26 | 12.77737 | 66.70025 | 35870 ft | 517 kts | 140° |
| 2026-05-05 13:26 | 12.72131 | 66.74643 | 35870 ft | 517 kts | 140° |
| 2026-05-05 13:27 | 12.66532 | 66.79252 | 35873 ft | 516 kts | 140° |
| 2026-05-05 13:27 | 12.60929 | 66.83861 | 35873 ft | 516 kts | 140° |
| 2026-05-05 13:28 | 12.55356 | 66.88443 | 35873 ft | 516 kts | 140° |
| 2026-05-05 13:28 | 12.49760 | 66.93042 | 35873 ft | 516 kts | 140° |
| 2026-05-05 13:29 | 12.44152 | 66.97647 | 35875 ft | 516 kts | 140° |
| 2026-05-05 13:29 | 12.38543 | 67.02252 | 35873 ft | 516 kts | 140° |
| 2026-05-05 13:30 | 12.32944 | 67.06845 | 35872 ft | 513 kts | 140° |
| 2026-05-05 13:30 | 12.27360 | 67.11423 | 35872 ft | 515 kts | 140° |
| 2026-05-05 13:31 | 12.21761 | 67.16011 | 35873 ft | 516 kts | 140° |
| 2026-05-05 13:31 | 12.16190 | 67.20574 | 35873 ft | 516 kts | 140° |
| 2026-05-05 13:32 | 12.10581 | 67.25164 | 35873 ft | 516 kts | 140° |
| 2026-05-05 13:32 | 12.04972 | 67.29753 | 35876 ft | 516 kts | 140° |
| 2026-05-05 13:33 | 11.99397 | 67.34311 | 35877 ft | 516 kts | 140° |
| 2026-05-05 13:33 | 11.93788 | 67.38899 | 35875 ft | 516 kts | 140° |
| 2026-05-05 13:34 | 11.88189 | 67.43474 | 35818 ft | 508 kts | 140° |
| 2026-05-05 13:34 | 11.82642 | 67.48000 | 35753 ft | 512 kts | 140° |
| 2026-05-05 13:35 | 11.77087 | 67.52531 | 35699 ft | 502 kts | 140° |
| 2026-05-05 13:35 | 11.74385 | 67.54734 | 35476 ft | 494 kts | 140° |
| 2026-05-05 13:35 | 11.71681 | 67.56939 | 35420 ft | 499 kts | 140° |
| 2026-05-05 13:36 | 11.66217 | 67.61396 | 35543 ft | 505 kts | 140° |
| 2026-05-05 13:36 | 11.60704 | 67.65890 | 35673 ft | 509 kts | 140° |
| 2026-05-05 13:37 | 11.55150 | 67.70412 | 35758 ft | 512 kts | 140° |
| 2026-05-05 13:37 | 11.49619 | 67.74914 | 36051 ft | 509 kts | 140° |
| 2026-05-05 13:38 | 11.46861 | 67.77158 | 36302 ft | 506 kts | 140° |
| 2026-05-05 13:38 | 11.44111 | 67.79394 | 36570 ft | 503 kts | 140° |
| 2026-05-05 13:38 | 11.41385 | 67.81611 | 36824 ft | 501 kts | 140° |
| 2026-05-05 13:38 | 11.38658 | 67.83828 | 36878 ft | 503 kts | 140° |
| 2026-05-05 13:39 | 11.33151 | 67.88306 | 36877 ft | 508 kts | 140° |
| 2026-05-05 13:39 | 11.27619 | 67.92800 | 36878 ft | 510 kts | 140° |
| 2026-05-05 13:40 | 11.22054 | 67.97318 | 36876 ft | 511 kts | 140° |
| 2026-05-05 13:40 | 11.16524 | 68.01805 | 36876 ft | 511 kts | 140° |
| 2026-05-05 13:41 | 11.10933 | 68.06340 | 36876 ft | 510 kts | 140° |
| 2026-05-05 13:41 | 11.05408 | 68.10819 | 36876 ft | 510 kts | 140° |
| 2026-05-05 13:42 | 10.99856 | 68.15317 | 36878 ft | 510 kts | 140° |
| 2026-05-05 13:42 | 10.94293 | 68.19823 | 36878 ft | 510 kts | 140° |
| 2026-05-05 13:43 | 10.88741 | 68.24317 | 36878 ft | 510 kts | 140° |
| 2026-05-05 13:43 | 10.83173 | 68.28822 | 36878 ft | 510 kts | 140° |
| 2026-05-05 13:44 | 10.77645 | 68.33293 | 36875 ft | 511 kts | 140° |
| 2026-05-05 13:44 | 10.72087 | 68.37785 | 36875 ft | 511 kts | 140° |
| 2026-05-05 13:45 | 10.66517 | 68.42285 | 36875 ft | 510 kts | 140° |
| 2026-05-05 13:45 | 10.60948 | 68.46782 | 36876 ft | 510 kts | 140° |
| 2026-05-05 13:46 | 10.55384 | 68.51273 | 36880 ft | 511 kts | 140° |
| 2026-05-05 13:46 | 10.49850 | 68.55738 | 36876 ft | 512 kts | 141° |
| 2026-05-05 13:47 | 10.44265 | 68.60242 | 36875 ft | 512 kts | 141° |
| 2026-05-05 13:47 | 10.38690 | 68.64735 | 36875 ft | 512 kts | 140° |
| 2026-05-05 13:48 | 10.33106 | 68.69233 | 36875 ft | 512 kts | 140° |
| 2026-05-05 13:48 | 10.27511 | 68.73739 | 36873 ft | 512 kts | 140° |
| 2026-05-05 13:49 | 10.21928 | 68.78232 | 36873 ft | 513 kts | 141° |
| 2026-05-05 13:49 | 10.16333 | 68.82733 | 36873 ft | 512 kts | 141° |
| 2026-05-05 13:50 | 10.10742 | 68.87230 | 36868 ft | 511 kts | 141° |
| 2026-05-05 13:50 | 10.05178 | 68.91703 | 36869 ft | 509 kts | 141° |
| 2026-05-05 13:51 | 9.99663 | 68.96132 | 36868 ft | 508 kts | 141° |
| 2026-05-05 13:51 | 9.94116 | 69.00586 | 36870 ft | 508 kts | 141° |
| 2026-05-05 13:52 | 9.88572 | 69.05036 | 36871 ft | 508 kts | 141° |
| 2026-05-05 13:52 | 9.83023 | 69.09488 | 36870 ft | 508 kts | 141° |
| 2026-05-05 13:53 | 9.77493 | 69.13923 | 36870 ft | 507 kts | 141° |
| 2026-05-05 13:53 | 9.71953 | 69.18367 | 36870 ft | 507 kts | 141° |
| 2026-05-05 13:54 | 9.66415 | 69.22804 | 36869 ft | 507 kts | 141° |
| 2026-05-05 13:54 | 9.60899 | 69.27213 | 36871 ft | 508 kts | 141° |
| 2026-05-05 13:55 | 9.55338 | 69.31658 | 36871 ft | 509 kts | 141° |
| 2026-05-05 13:55 | 9.49783 | 69.36097 | 36869 ft | 508 kts | 141° |
| 2026-05-05 13:56 | 9.44237 | 69.40530 | 36869 ft | 507 kts | 141° |
| 2026-05-05 13:56 | 9.38686 | 69.44964 | 36869 ft | 507 kts | 141° |
| 2026-05-05 13:57 | 9.33148 | 69.49386 | 36870 ft | 506 kts | 141° |
| 2026-05-05 13:57 | 9.27605 | 69.53811 | 36871 ft | 507 kts | 141° |
| 2026-05-05 13:58 | 9.22107 | 69.58197 | 36870 ft | 507 kts | 141° |
| 2026-05-05 13:58 | 9.16569 | 69.62614 | 36867 ft | 507 kts | 141° |
| 2026-05-05 13:59 | 9.08262 | 69.69235 | 36865 ft | 506 kts | 141° |
| 2026-05-05 14:00 | 9.00896 | 69.75104 | 36870 ft | 505 kts | 141° |
| 2026-05-05 14:00 | 8.94443 | 69.80242 | 36867 ft | 505 kts | 141° |
| 2026-05-05 14:01 | 8.88937 | 69.84623 | 36866 ft | 505 kts | 141° |
| 2026-05-05 14:01 | 8.83387 | 69.89040 | 36866 ft | 510 kts | 141° |
| 2026-05-05 14:02 | 8.77794 | 69.93487 | 36864 ft | 512 kts | 140° |
| 2026-05-05 14:02 | 8.72183 | 69.97947 | 36864 ft | 514 kts | 141° |
| 2026-05-05 14:03 | 8.66561 | 70.02414 | 36864 ft | 514 kts | 140° |
| 2026-05-05 14:03 | 8.60936 | 70.06881 | 36864 ft | 514 kts | 141° |
| 2026-05-05 14:04 | 8.55311 | 70.11348 | 36865 ft | 514 kts | 140° |
| 2026-05-05 14:04 | 8.49686 | 70.15812 | 36864 ft | 514 kts | 141° |
| 2026-05-05 14:05 | 8.44063 | 70.20274 | 36860 ft | 514 kts | 140° |
| 2026-05-05 14:05 | 8.38475 | 70.24706 | 36862 ft | 514 kts | 140° |
| 2026-05-05 14:06 | 8.32847 | 70.29168 | 36862 ft | 514 kts | 140° |
| 2026-05-05 14:06 | 8.27220 | 70.33628 | 36861 ft | 514 kts | 140° |
| 2026-05-05 14:07 | 8.21591 | 70.38087 | 36866 ft | 514 kts | 140° |
| 2026-05-05 14:07 | 8.15967 | 70.42540 | 36864 ft | 513 kts | 140° |
| 2026-05-05 14:08 | 8.10385 | 70.46959 | 36864 ft | 513 kts | 140° |
| 2026-05-05 14:08 | 8.04771 | 70.51401 | 36864 ft | 512 kts | 140° |
| 2026-05-05 14:09 | 7.99155 | 70.55844 | 36864 ft | 512 kts | 141° |
| 2026-05-05 14:09 | 7.93547 | 70.60278 | 36865 ft | 511 kts | 141° |
| 2026-05-05 14:10 | 7.87957 | 70.64697 | 36865 ft | 511 kts | 141° |
| 2026-05-05 14:10 | 7.82400 | 70.69087 | 36864 ft | 509 kts | 140° |
| 2026-05-05 14:11 | 7.76820 | 70.73495 | 36865 ft | 509 kts | 141° |
| 2026-05-05 14:11 | 7.71243 | 70.77899 | 36865 ft | 509 kts | 141° |
| 2026-05-05 14:12 | 7.65669 | 70.82299 | 36865 ft | 509 kts | 141° |
| 2026-05-05 14:12 | 7.60082 | 70.86708 | 36864 ft | 509 kts | 141° |
| 2026-05-05 14:13 | 7.54497 | 70.91113 | 36865 ft | 509 kts | 141° |
| 2026-05-05 14:13 | 7.48925 | 70.95513 | 36864 ft | 508 kts | 140° |
| 2026-05-05 14:14 | 7.44469 | 70.99376 | 36868 ft | 508 kts | 136° |
| 2026-05-05 14:14 | 7.38415 | 71.04972 | 36867 ft | 508 kts | 136° |
| 2026-05-05 14:15 | 7.34038 | 71.08981 | 36867 ft | 508 kts | 137° |
| 2026-05-05 14:15 | 7.28806 | 71.13706 | 36867 ft | 508 kts | 137° |
| 2026-05-05 14:16 | 7.23530 | 71.18440 | 36867 ft | 508 kts | 137° |
| 2026-05-05 14:16 | 7.18249 | 71.23172 | 36867 ft | 508 kts | 137° |
| 2026-05-05 14:17 | 7.12975 | 71.27901 | 36867 ft | 507 kts | 137° |
| 2026-05-05 14:17 | 7.07699 | 71.32632 | 36867 ft | 508 kts | 137° |
| 2026-05-05 14:18 | 7.02420 | 71.37363 | 36868 ft | 507 kts | 137° |
| 2026-05-05 14:18 | 6.97148 | 71.42088 | 36867 ft | 507 kts | 137° |
| 2026-05-05 14:19 | 6.91874 | 71.46812 | 36868 ft | 507 kts | 137° |
| 2026-05-05 14:19 | 6.86635 | 71.51503 | 36867 ft | 507 kts | 137° |
| 2026-05-05 14:20 | 6.81356 | 71.56229 | 36870 ft | 508 kts | 137° |
| 2026-05-05 14:20 | 6.76083 | 71.60949 | 36867 ft | 507 kts | 137° |
| 2026-05-05 14:21 | 6.70808 | 71.65668 | 36867 ft | 507 kts | 137° |
| 2026-05-05 14:21 | 6.65528 | 71.70391 | 36867 ft | 507 kts | 137° |
| 2026-05-05 14:22 | 6.60261 | 71.75101 | 36867 ft | 506 kts | 137° |
| 2026-05-05 14:22 | 6.55027 | 71.79780 | 36867 ft | 507 kts | 137° |
| 2026-05-05 14:23 | 6.49758 | 71.84488 | 36870 ft | 507 kts | 137° |
| 2026-05-05 14:23 | 6.44486 | 71.89198 | 36867 ft | 506 kts | 137° |
| 2026-05-05 14:24 | 6.39212 | 71.93908 | 36870 ft | 506 kts | 137° |
| 2026-05-05 14:24 | 6.33944 | 71.98612 | 36870 ft | 506 kts | 137° |
| 2026-05-05 14:25 | 6.28666 | 72.03322 | 36870 ft | 506 kts | 137° |
| 2026-05-05 14:25 | 6.23426 | 72.07999 | 36870 ft | 506 kts | 137° |
| 2026-05-05 14:26 | 6.18153 | 72.12702 | 36873 ft | 506 kts | 137° |
| 2026-05-05 14:26 | 6.12886 | 72.17400 | 36873 ft | 506 kts | 137° |
| 2026-05-05 14:27 | 6.07622 | 72.22093 | 36873 ft | 506 kts | 137° |
| 2026-05-05 14:27 | 6.02358 | 72.26785 | 36871 ft | 505 kts | 137° |
| 2026-05-05 14:28 | 5.97095 | 72.31475 | 36873 ft | 505 kts | 137° |
| 2026-05-05 14:28 | 5.91834 | 72.36162 | 36875 ft | 505 kts | 137° |
| 2026-05-05 14:29 | 5.86572 | 72.40848 | 36873 ft | 505 kts | 137° |
| 2026-05-05 14:29 | 5.81313 | 72.45531 | 36873 ft | 505 kts | 137° |
| 2026-05-05 14:30 | 5.76080 | 72.50190 | 36876 ft | 506 kts | 137° |
| 2026-05-05 14:30 | 5.70803 | 72.54886 | 36875 ft | 506 kts | 137° |
| 2026-05-05 14:31 | 5.65527 | 72.59580 | 36875 ft | 506 kts | 137° |
| 2026-05-05 14:31 | 5.60282 | 72.64245 | 36875 ft | 506 kts | 137° |
| 2026-05-05 14:32 | 5.55011 | 72.68933 | 36873 ft | 506 kts | 137° |
| 2026-05-05 14:32 | 5.49743 | 72.73617 | 36875 ft | 506 kts | 137° |
| 2026-05-05 14:33 | 5.44469 | 72.78304 | 36879 ft | 506 kts | 137° |
| 2026-05-05 14:33 | 5.39226 | 72.82962 | 36878 ft | 506 kts | 137° |
| 2026-05-05 14:34 | 5.33953 | 72.87648 | 36878 ft | 506 kts | 137° |
| 2026-05-05 14:34 | 5.28679 | 72.92333 | 36878 ft | 506 kts | 137° |
| 2026-05-05 14:35 | 5.23402 | 72.97019 | 36877 ft | 506 kts | 137° |
| 2026-05-05 14:35 | 5.18121 | 73.01707 | 36878 ft | 507 kts | 137° |
| 2026-05-05 14:36 | 5.12870 | 73.06368 | 36875 ft | 507 kts | 137° |
| 2026-05-05 14:36 | 5.07578 | 73.11064 | 36878 ft | 506 kts | 137° |
| 2026-05-05 14:37 | 5.02298 | 73.15747 | 36878 ft | 506 kts | 137° |
| 2026-05-05 14:37 | 4.97049 | 73.20403 | 36878 ft | 506 kts | 137° |
| 2026-05-05 14:38 | 4.91774 | 73.25081 | 36881 ft | 506 kts | 137° |
| 2026-05-05 14:38 | 4.86499 | 73.29757 | 36881 ft | 506 kts | 137° |
| 2026-05-05 14:39 | 4.81223 | 73.34433 | 36883 ft | 505 kts | 137° |
| 2026-05-05 14:39 | 4.75956 | 73.39101 | 36884 ft | 505 kts | 137° |
| 2026-05-05 14:40 | 4.70687 | 73.43770 | 36882 ft | 505 kts | 138° |
| 2026-05-05 14:40 | 4.65410 | 73.48444 | 36879 ft | 505 kts | 138° |
| 2026-05-05 14:41 | 4.60173 | 73.53081 | 36880 ft | 505 kts | 138° |
| 2026-05-05 14:41 | 4.54904 | 73.57747 | 36879 ft | 505 kts | 138° |
| 2026-05-05 14:42 | 4.49646 | 73.62401 | 36883 ft | 504 kts | 138° |
| 2026-05-05 14:42 | 4.44389 | 73.67054 | 36882 ft | 505 kts | 138° |
| 2026-05-05 14:43 | 4.39128 | 73.71709 | 36888 ft | 504 kts | 138° |
| 2026-05-05 14:43 | 4.33850 | 73.76379 | 36887 ft | 507 kts | 138° |
| 2026-05-05 14:44 | 4.28561 | 73.81057 | 36885 ft | 506 kts | 137° |
| 2026-05-05 14:44 | 4.23284 | 73.85725 | 36887 ft | 506 kts | 138° |
| 2026-05-05 14:45 | 4.18050 | 73.90353 | 36888 ft | 505 kts | 138° |
| 2026-05-05 14:45 | 4.12779 | 73.95012 | 36883 ft | 505 kts | 138° |
| 2026-05-05 14:46 | 4.07498 | 73.99681 | 36887 ft | 505 kts | 137° |
| 2026-05-05 14:46 | 4.02227 | 74.04340 | 36886 ft | 506 kts | 138° |
| 2026-05-05 14:47 | 3.96936 | 74.09015 | 36872 ft | 508 kts | 138° |
| 2026-05-05 14:47 | 3.94291 | 74.11351 | 37034 ft | 503 kts | 137° |
| 2026-05-05 14:47 | 3.91676 | 74.13660 | 37332 ft | 498 kts | 137° |
| 2026-05-05 14:48 | 3.89084 | 74.15951 | 37640 ft | 494 kts | 138° |
| 2026-05-05 14:48 | 3.86515 | 74.18218 | 37964 ft | 491 kts | 137° |
| 2026-05-05 14:48 | 3.83997 | 74.20441 | 38279 ft | 487 kts | 137° |
| 2026-05-05 14:48 | 3.81467 | 74.22675 | 38606 ft | 483 kts | 137° |
| 2026-05-05 14:49 | 3.78955 | 74.24894 | 38833 ft | 480 kts | 137° |
| 2026-05-05 14:49 | 3.76451 | 74.27106 | 38888 ft | 482 kts | 137° |
| 2026-05-05 14:49 | 3.71385 | 74.31580 | 38889 ft | 487 kts | 137° |
| 2026-05-05 14:50 | 3.66275 | 74.36093 | 38883 ft | 491 kts | 137° |
| 2026-05-05 14:50 | 3.57840 | 74.43535 | 38889 ft | 495 kts | 137° |
| 2026-05-05 14:51 | 3.47481 | 74.52674 | 38892 ft | 497 kts | 137° |
| 2026-05-05 14:51 | 3.37089 | 74.61839 | 38895 ft | 498 kts | 137° |
| 2026-05-05 14:52 | 3.26688 | 74.71011 | 38896 ft | 499 kts | 137° |
| 2026-05-05 14:52 | 3.16273 | 74.80190 | 38895 ft | 499 kts | 137° |
| 2026-05-05 14:53 | 3.05841 | 74.89385 | 38895 ft | 499 kts | 137° |
| 2026-05-05 14:53 | 2.95478 | 74.98514 | 38895 ft | 499 kts | 137° |
| 2026-05-05 14:54 | 2.85025 | 75.07719 | 38891 ft | 500 kts | 137° |
| 2026-05-05 14:54 | 2.73390 | 75.17965 | 38895 ft | 500 kts | 137° |
| 2026-05-05 14:55 | 2.52471 | 75.36377 | 38895 ft | 502 kts | 136° |
| 2026-05-05 14:55 | 2.31435 | 75.54887 | 38895 ft | 503 kts | 136° |
| 2026-05-05 14:56 | 2.10458 | 75.73333 | 38895 ft | 498 kts | 135° |
| 2026-05-05 14:56 | 1.89769 | 75.91523 | 38894 ft | 497 kts | 135° |
| 2026-05-05 14:57 | 1.69140 | 76.09653 | 38895 ft | 498 kts | 135° |
| 2026-05-05 14:57 | 1.48257 | 76.28000 | 38894 ft | 499 kts | 135° |
| 2026-05-05 14:58 | 1.27461 | 76.46265 | 38891 ft | 496 kts | 135° |
| 2026-05-05 14:58 | 1.06708 | 76.64491 | 38892 ft | 495 kts | 136° |
| 2026-05-05 14:59 | 0.86158 | 76.82532 | 38892 ft | 494 kts | 136° |
| 2026-05-05 14:59 | 0.65449 | 77.00711 | 38892 ft | 496 kts | 135° |
| 2026-05-05 15:00 | 0.48098 | 77.15942 | 38897 ft | 496 kts | 135° |
| 2026-05-05 15:00 | 0.23981 | 77.37109 | 38896 ft | 496 kts | 136° |
| 2026-05-05 15:01 | 0.03226 | 77.55325 | 38895 ft | 496 kts | 136° |
| 2026-05-05 15:01 | -0.17540 | 77.73550 | 38891 ft | 496 kts | 136° |
| 2026-05-05 15:02 | -0.38160 | 77.91647 | 38894 ft | 496 kts | 135° |
| 2026-05-05 15:02 | -0.58079 | 78.09837 | 38894 ft | 468 kts | 132° |
| 2026-05-05 15:03 | -0.65604 | 78.17070 | 38893 ft | 456 kts | 133° |
| 2026-05-05 15:03 | -0.67892 | 78.19252 | 38892 ft | 453 kts | 133° |
| 2026-05-05 15:03 | -0.72474 | 78.23620 | 38892 ft | 459 kts | 133° |
| 2026-05-05 15:04 | -0.76347 | 78.27312 | 38897 ft | 464 kts | 133° |
| 2026-05-05 15:04 | -0.81053 | 78.31795 | 38897 ft | 471 kts | 133° |
| 2026-05-05 15:05 | -0.89024 | 78.39387 | 38892 ft | 481 kts | 133° |
| 2026-05-05 15:06 | -0.93101 | 78.43269 | 38894 ft | 485 kts | 133° |
| 2026-05-05 15:06 | -0.98012 | 78.47946 | 38894 ft | 489 kts | 133° |
| 2026-05-05 15:07 | -1.02919 | 78.52620 | 38895 ft | 491 kts | 133° |
| 2026-05-05 15:07 | -1.07867 | 78.57333 | 38899 ft | 492 kts | 133° |
| 2026-05-05 15:08 | -1.12826 | 78.62057 | 38897 ft | 492 kts | 133° |
| 2026-05-05 15:08 | -1.17775 | 78.66770 | 38897 ft | 491 kts | 133° |
| 2026-05-05 15:09 | -1.22720 | 78.71483 | 38894 ft | 491 kts | 133° |
| 2026-05-05 15:09 | -1.27661 | 78.76191 | 38893 ft | 491 kts | 133° |
| 2026-05-05 15:10 | -1.32616 | 78.80913 | 38898 ft | 491 kts | 133° |
| 2026-05-05 15:10 | -1.37532 | 78.85598 | 38899 ft | 491 kts | 133° |
| 2026-05-05 15:11 | -1.42493 | 78.90326 | 38899 ft | 491 kts | 133° |
| 2026-05-05 15:11 | -1.47446 | 78.95047 | 38900 ft | 491 kts | 133° |
| 2026-05-05 15:12 | -1.52398 | 78.99768 | 38899 ft | 492 kts | 134° |
| 2026-05-05 15:12 | -1.57357 | 79.04495 | 38898 ft | 494 kts | 134° |
| 2026-05-05 15:13 | -1.62307 | 79.09214 | 38901 ft | 495 kts | 134° |
| 2026-05-05 15:13 | -1.67297 | 79.13971 | 38896 ft | 495 kts | 134° |
| 2026-05-05 15:14 | -1.72287 | 79.18729 | 38899 ft | 495 kts | 134° |
| 2026-05-05 15:14 | -1.77286 | 79.23495 | 38901 ft | 496 kts | 134° |
| 2026-05-05 15:15 | -1.82279 | 79.28256 | 38901 ft | 496 kts | 134° |
| 2026-05-05 15:15 | -1.87234 | 79.32982 | 38900 ft | 496 kts | 134° |
| 2026-05-05 15:16 | -1.92226 | 79.37744 | 38898 ft | 496 kts | 134° |
| 2026-05-05 15:16 | -1.97218 | 79.42505 | 38896 ft | 496 kts | 134° |
| 2026-05-05 15:17 | -2.02242 | 79.47251 | 38897 ft | 497 kts | 136° |
| 2026-05-05 15:17 | -2.07534 | 79.51726 | 38901 ft | 499 kts | 139° |
| 2026-05-05 15:18 | -2.12865 | 79.56106 | 38902 ft | 499 kts | 138° |
| 2026-05-05 15:18 | -2.18196 | 79.60560 | 38896 ft | 499 kts | 138° |
| 2026-05-05 15:19 | -2.23503 | 79.65043 | 38897 ft | 499 kts | 137° |
| 2026-05-05 15:19 | -2.28793 | 79.69527 | 38897 ft | 498 kts | 137° |
| 2026-05-05 15:20 | -2.34083 | 79.74010 | 38896 ft | 498 kts | 137° |
| 2026-05-05 15:20 | -2.39377 | 79.78495 | 38896 ft | 498 kts | 137° |
| 2026-05-05 15:21 | -2.44625 | 79.82940 | 38898 ft | 497 kts | 137° |
| 2026-05-05 15:21 | -2.49907 | 79.87413 | 38898 ft | 497 kts | 137° |
| 2026-05-05 15:22 | -2.55197 | 79.91894 | 38896 ft | 497 kts | 137° |
| 2026-05-05 15:22 | -2.60475 | 79.96366 | 38895 ft | 497 kts | 137° |
| 2026-05-05 15:23 | -2.65751 | 80.00836 | 38901 ft | 497 kts | 137° |
| 2026-05-05 15:23 | -2.71016 | 80.05297 | 38897 ft | 496 kts | 137° |
| 2026-05-05 15:24 | -2.76286 | 80.09763 | 38893 ft | 496 kts | 137° |
| 2026-05-05 15:24 | -2.81551 | 80.14226 | 38894 ft | 496 kts | 137° |
| 2026-05-05 15:25 | -2.86816 | 80.18690 | 38891 ft | 497 kts | 137° |
| 2026-05-05 15:25 | -2.92059 | 80.23135 | 38895 ft | 498 kts | 137° |
| 2026-05-05 15:26 | -2.97357 | 80.27627 | 38896 ft | 499 kts | 137° |
| 2026-05-05 15:26 | -3.02658 | 80.32123 | 38890 ft | 499 kts | 137° |
| 2026-05-05 15:27 | -3.07953 | 80.36613 | 38895 ft | 499 kts | 137° |
| 2026-05-05 15:27 | -3.13258 | 80.41113 | 38894 ft | 499 kts | 137° |
| 2026-05-05 15:28 | -3.18556 | 80.45608 | 38895 ft | 499 kts | 137° |
| 2026-05-05 15:28 | -3.23831 | 80.50084 | 38894 ft | 499 kts | 137° |
| 2026-05-05 15:29 | -3.29125 | 80.54576 | 38893 ft | 499 kts | 137° |
| 2026-05-05 15:29 | -3.34431 | 80.59079 | 38893 ft | 500 kts | 137° |
| 2026-05-05 15:30 | -3.39741 | 80.63587 | 38894 ft | 500 kts | 137° |
| 2026-05-05 15:30 | -3.45055 | 80.68098 | 38893 ft | 500 kts | 137° |
| 2026-05-05 15:31 | -3.50335 | 80.72582 | 38895 ft | 501 kts | 137° |
| 2026-05-05 15:31 | -3.55650 | 80.77095 | 38892 ft | 501 kts | 137° |
| 2026-05-05 15:32 | -3.60964 | 80.81609 | 38895 ft | 501 kts | 137° |
| 2026-05-05 15:32 | -3.66280 | 80.86125 | 38893 ft | 501 kts | 137° |
| 2026-05-05 15:33 | -3.71595 | 80.90641 | 38893 ft | 501 kts | 137° |
| 2026-05-05 15:33 | -3.76905 | 80.95154 | 38890 ft | 501 kts | 137° |
| 2026-05-05 15:34 | -3.82197 | 80.99650 | 38895 ft | 500 kts | 137° |
| 2026-05-05 15:34 | -3.87498 | 81.04158 | 38895 ft | 500 kts | 137° |
| 2026-05-05 15:35 | -3.92813 | 81.08676 | 38890 ft | 500 kts | 137° |
| 2026-05-05 15:35 | -3.98113 | 81.13183 | 38892 ft | 500 kts | 137° |
| 2026-05-05 15:36 | -4.03414 | 81.17692 | 38893 ft | 500 kts | 137° |
| 2026-05-05 15:36 | -4.08716 | 81.22202 | 38892 ft | 500 kts | 137° |
| 2026-05-05 15:37 | -4.13983 | 81.26683 | 38891 ft | 500 kts | 137° |
| 2026-05-05 15:37 | -4.19274 | 81.31186 | 38885 ft | 497 kts | 137° |
| 2026-05-05 15:38 | -4.24549 | 81.35675 | 38903 ft | 496 kts | 137° |
| 2026-05-05 15:38 | -4.29813 | 81.40156 | 38902 ft | 496 kts | 137° |
| 2026-05-05 15:39 | -4.35072 | 81.44634 | 38884 ft | 496 kts | 137° |
| 2026-05-05 15:39 | -4.40330 | 81.49112 | 38902 ft | 496 kts | 137° |
| 2026-05-05 15:40 | -4.45550 | 81.53559 | 38902 ft | 496 kts | 137° |
| 2026-05-05 15:40 | -4.50806 | 81.58037 | 38884 ft | 496 kts | 137° |
| 2026-05-05 15:41 | -4.56064 | 81.62518 | 38897 ft | 495 kts | 138° |
| 2026-05-05 15:41 | -4.61311 | 81.66990 | 38895 ft | 496 kts | 138° |
| 2026-05-05 15:42 | -4.66578 | 81.71480 | 38896 ft | 497 kts | 138° |
| 2026-05-05 15:42 | -4.71848 | 81.75973 | 38892 ft | 497 kts | 138° |
| 2026-05-05 15:43 | -4.77120 | 81.80469 | 38891 ft | 498 kts | 138° |
| 2026-05-05 15:43 | -4.82396 | 81.84969 | 38893 ft | 498 kts | 138° |
| 2026-05-05 15:44 | -4.87641 | 81.89443 | 38890 ft | 498 kts | 138° |
| 2026-05-05 15:44 | -4.92917 | 81.93946 | 38888 ft | 498 kts | 138° |
| 2026-05-05 15:45 | -4.98199 | 81.98454 | 38889 ft | 499 kts | 138° |
| 2026-05-05 15:45 | -5.03400 | 82.03057 | 38887 ft | 498 kts | 134° |
| 2026-05-05 15:46 | -5.08298 | 82.07972 | 38886 ft | 497 kts | 133° |
| 2026-05-05 15:46 | -5.13161 | 82.12910 | 38886 ft | 498 kts | 133° |
| 2026-05-05 15:47 | -5.18075 | 82.17806 | 38884 ft | 498 kts | 134° |
| 2026-05-05 15:47 | -5.23018 | 82.22681 | 38884 ft | 497 kts | 134° |
| 2026-05-05 15:48 | -5.27958 | 82.27546 | 38878 ft | 498 kts | 134° |
| 2026-05-05 15:48 | -5.32902 | 82.32419 | 38881 ft | 498 kts | 134° |
| 2026-05-05 15:49 | -5.37810 | 82.37260 | 38883 ft | 498 kts | 133° |
| 2026-05-05 15:49 | -5.42759 | 82.42146 | 38879 ft | 498 kts | 134° |
| 2026-05-05 15:50 | -5.47711 | 82.47033 | 38882 ft | 499 kts | 134° |
| 2026-05-05 15:50 | -5.51821 | 82.51089 | 38880 ft | 498 kts | 134° |
| 2026-05-05 15:51 | -5.57569 | 82.56764 | 38877 ft | 497 kts | 134° |
| 2026-05-05 15:51 | -5.62502 | 82.61638 | 38879 ft | 498 kts | 134° |
| 2026-05-05 15:52 | -5.66608 | 82.65694 | 38879 ft | 497 kts | 134° |
| 2026-05-05 15:52 | -5.71541 | 82.70569 | 38876 ft | 498 kts | 134° |
| 2026-05-05 15:53 | -5.76490 | 82.75461 | 38873 ft | 499 kts | 134° |
| 2026-05-05 15:53 | -5.81434 | 82.80348 | 38870 ft | 499 kts | 134° |
| 2026-05-05 15:54 | -5.86391 | 82.85251 | 38878 ft | 501 kts | 134° |
| 2026-05-05 15:54 | -5.91356 | 82.90160 | 38875 ft | 500 kts | 134° |
| 2026-05-05 15:55 | -5.96292 | 82.95046 | 38877 ft | 501 kts | 134° |
| 2026-05-05 15:55 | -6.01259 | 82.99962 | 38876 ft | 502 kts | 134° |
| 2026-05-05 15:56 | -6.06237 | 83.04890 | 38875 ft | 502 kts | 134° |
| 2026-05-05 15:56 | -6.11208 | 83.09812 | 38873 ft | 501 kts | 133° |
| 2026-05-05 15:57 | -6.16173 | 83.14730 | 38870 ft | 501 kts | 134° |
| 2026-05-05 15:57 | -6.21130 | 83.19643 | 38869 ft | 500 kts | 133° |
| 2026-05-05 15:58 | -6.26085 | 83.24553 | 38870 ft | 499 kts | 133° |
| 2026-05-05 15:58 | -6.31028 | 83.29453 | 38870 ft | 499 kts | 133° |
| 2026-05-05 15:59 | -6.35972 | 83.34355 | 38870 ft | 499 kts | 133° |
| 2026-05-05 15:59 | -6.40884 | 83.39228 | 38870 ft | 499 kts | 133° |
| 2026-05-05 16:00 | -6.45833 | 83.44139 | 38871 ft | 501 kts | 133° |
| 2026-05-05 16:00 | -6.50797 | 83.49067 | 38870 ft | 502 kts | 133° |
| 2026-05-05 16:01 | -6.55778 | 83.54012 | 38860 ft | 504 kts | 133° |
| 2026-05-05 16:01 | -6.60754 | 83.58954 | 38868 ft | 508 kts | 133° |
| 2026-05-05 16:02 | -6.65792 | 83.63959 | 38868 ft | 510 kts | 133° |
| 2026-05-05 16:02 | -6.70849 | 83.68983 | 38867 ft | 511 kts | 133° |
| 2026-05-05 16:03 | -6.75912 | 83.74016 | 38868 ft | 512 kts | 133° |
| 2026-05-05 16:03 | -6.80981 | 83.79055 | 38867 ft | 512 kts | 133° |
| 2026-05-05 16:04 | -6.86034 | 83.84081 | 38867 ft | 510 kts | 133° |
| 2026-05-05 16:04 | -6.91079 | 83.89100 | 38865 ft | 509 kts | 133° |
| 2026-05-05 16:05 | -6.96118 | 83.94116 | 38867 ft | 510 kts | 133° |
| 2026-05-05 16:05 | -7.01176 | 83.99152 | 38865 ft | 511 kts | 133° |
| 2026-05-05 16:06 | -7.06198 | 84.04154 | 38868 ft | 511 kts | 133° |
| 2026-05-05 16:06 | -7.11287 | 84.09223 | 38867 ft | 511 kts | 133° |
| 2026-05-05 16:07 | -7.16316 | 84.14234 | 38865 ft | 512 kts | 133° |
| 2026-05-05 16:07 | -7.21365 | 84.19267 | 38868 ft | 512 kts | 133° |
| 2026-05-05 16:08 | -7.26434 | 84.24322 | 38867 ft | 512 kts | 133° |
| 2026-05-05 16:08 | -7.31495 | 84.29371 | 38864 ft | 512 kts | 134° |
| 2026-05-05 16:09 | -7.36550 | 84.34416 | 38867 ft | 511 kts | 134° |
| 2026-05-05 16:09 | -7.41609 | 84.39466 | 38866 ft | 511 kts | 134° |
| 2026-05-05 16:10 | -7.46662 | 84.44510 | 38868 ft | 511 kts | 134° |
| 2026-05-05 16:10 | -7.51681 | 84.49523 | 38866 ft | 511 kts | 133° |
| 2026-05-05 16:11 | -7.56733 | 84.54572 | 38867 ft | 511 kts | 133° |
| 2026-05-05 16:12 | -7.66855 | 84.64692 | 38862 ft | 513 kts | 133° |
| 2026-05-05 16:13 | -7.79564 | 84.77410 | 38864 ft | 515 kts | 133° |
| 2026-05-05 16:13 | -7.84648 | 84.82500 | 38863 ft | 516 kts | 133° |
| 2026-05-05 16:14 | -7.94836 | 84.92705 | 38871 ft | 516 kts | 133° |
| 2026-05-05 16:15 | -8.05021 | 85.02915 | 38874 ft | 516 kts | 133° |
| 2026-05-05 16:16 | -8.15182 | 85.13110 | 38873 ft | 517 kts | 133° |
| 2026-05-05 16:17 | -8.22835 | 85.20793 | 38872 ft | 517 kts | 133° |
| 2026-05-05 16:18 | -8.30487 | 85.28479 | 38876 ft | 517 kts | 133° |
| 2026-05-05 16:19 | -8.38140 | 85.36171 | 38875 ft | 517 kts | 133° |
| 2026-05-05 16:19 | -8.45787 | 85.43862 | 38874 ft | 517 kts | 133° |
| 2026-05-05 16:20 | -8.55999 | 85.54139 | 38881 ft | 518 kts | 133° |
| 2026-05-05 16:22 | -8.68749 | 85.66981 | 38878 ft | 519 kts | 133° |
| 2026-05-05 16:23 | -8.78998 | 85.77315 | 38884 ft | 520 kts | 133° |
| 2026-05-05 16:23 | -8.86663 | 85.85048 | 38884 ft | 520 kts | 133° |
| 2026-05-05 16:24 | -8.91791 | 85.90224 | 38884 ft | 520 kts | 133° |
| 2026-05-05 16:25 | -8.99478 | 85.97988 | 38888 ft | 520 kts | 133° |
| 2026-05-05 16:25 | -9.07131 | 86.05723 | 38889 ft | 521 kts | 133° |
| 2026-05-05 16:26 | -9.17406 | 86.16115 | 38889 ft | 523 kts | 133° |
| 2026-05-05 16:27 | -9.22548 | 86.21320 | 38891 ft | 524 kts | 133° |
| 2026-05-05 16:27 | -9.27708 | 86.26544 | 38889 ft | 524 kts | 133° |
| 2026-05-05 16:28 | -9.32866 | 86.31769 | 38892 ft | 524 kts | 133° |
| 2026-05-05 16:28 | -9.38030 | 86.37001 | 38898 ft | 525 kts | 133° |
| 2026-05-05 16:29 | -9.43159 | 86.42202 | 38898 ft | 525 kts | 133° |
| 2026-05-05 16:29 | -9.48322 | 86.47439 | 38898 ft | 526 kts | 133° |
| 2026-05-05 16:30 | -9.53501 | 86.52694 | 38900 ft | 526 kts | 133° |
| 2026-05-05 16:30 | -9.58677 | 86.57949 | 38901 ft | 526 kts | 132° |
| 2026-05-05 16:31 | -9.63852 | 86.63204 | 38903 ft | 525 kts | 132° |
| 2026-05-05 16:31 | -9.68978 | 86.68413 | 38906 ft | 525 kts | 132° |
| 2026-05-05 16:32 | -9.74132 | 86.73653 | 38905 ft | 525 kts | 132° |
| 2026-05-05 16:32 | -9.79295 | 86.78905 | 38903 ft | 525 kts | 132° |
| 2026-05-05 16:33 | -9.84448 | 86.84149 | 38905 ft | 525 kts | 133° |
| 2026-05-05 16:33 | -9.89608 | 86.89403 | 38903 ft | 526 kts | 133° |
| 2026-05-05 16:34 | -9.94772 | 86.94661 | 38906 ft | 526 kts | 133° |
| 2026-05-05 16:34 | -9.99901 | 86.99887 | 38909 ft | 526 kts | 132° |
| 2026-05-05 16:35 | -10.04916 | 87.05277 | 38909 ft | 525 kts | 129° |
| 2026-05-05 16:35 | -10.09770 | 87.10830 | 38911 ft | 525 kts | 129° |
| 2026-05-05 16:36 | -10.14627 | 87.16366 | 38908 ft | 525 kts | 129° |
| 2026-05-05 16:36 | -10.19487 | 87.21844 | 38916 ft | 525 kts | 130° |
| 2026-05-05 16:37 | -10.24392 | 87.27350 | 38915 ft | 527 kts | 130° |
| 2026-05-05 16:37 | -10.29326 | 87.32886 | 38911 ft | 528 kts | 130° |
| 2026-05-05 16:38 | -10.34254 | 87.38421 | 38916 ft | 528 kts | 130° |
| 2026-05-05 16:38 | -10.39188 | 87.43968 | 38917 ft | 528 kts | 130° |
| 2026-05-05 16:39 | -10.44115 | 87.49510 | 38916 ft | 529 kts | 130° |
| 2026-05-05 16:39 | -10.48214 | 87.54123 | 38916 ft | 529 kts | 130° |
| 2026-05-05 16:40 | -10.53943 | 87.60573 | 38917 ft | 529 kts | 130° |
| 2026-05-05 16:40 | -10.58072 | 87.65225 | 38922 ft | 529 kts | 130° |
| 2026-05-05 16:41 | -10.62997 | 87.70776 | 38919 ft | 528 kts | 130° |
| 2026-05-05 16:41 | -10.67886 | 87.76288 | 38918 ft | 527 kts | 130° |
| 2026-05-05 16:42 | -10.72796 | 87.81827 | 38923 ft | 527 kts | 130° |
| 2026-05-05 16:42 | -10.77707 | 87.87370 | 38922 ft | 527 kts | 130° |
| 2026-05-05 16:43 | -10.82622 | 87.92921 | 38923 ft | 527 kts | 130° |
| 2026-05-05 16:43 | -10.87525 | 87.98463 | 38926 ft | 527 kts | 130° |
| 2026-05-05 16:44 | -10.92425 | 88.04002 | 38925 ft | 527 kts | 130° |
| 2026-05-05 16:44 | -10.97295 | 88.09511 | 38927 ft | 527 kts | 130° |
| 2026-05-05 16:45 | -11.02190 | 88.15052 | 38928 ft | 526 kts | 130° |
| 2026-05-05 16:45 | -11.07101 | 88.20612 | 38924 ft | 526 kts | 130° |
| 2026-05-05 16:46 | -11.11990 | 88.26151 | 38928 ft | 526 kts | 130° |
| 2026-05-05 16:46 | -11.16891 | 88.31708 | 38926 ft | 526 kts | 130° |
| 2026-05-05 16:47 | -11.21748 | 88.37217 | 38932 ft | 526 kts | 130° |
| 2026-05-05 16:47 | -11.26635 | 88.42763 | 38929 ft | 526 kts | 130° |
| 2026-05-05 16:48 | -11.31529 | 88.48320 | 38924 ft | 526 kts | 130° |
| 2026-05-05 16:48 | -11.36419 | 88.53876 | 38941 ft | 527 kts | 130° |
| 2026-05-05 16:49 | -11.41325 | 88.59452 | 38937 ft | 527 kts | 130° |
| 2026-05-05 16:49 | -11.46224 | 88.65025 | 38926 ft | 527 kts | 130° |
| 2026-05-05 16:50 | -11.51123 | 88.70600 | 38941 ft | 527 kts | 130° |
| 2026-05-05 16:50 | -11.55979 | 88.76129 | 38939 ft | 527 kts | 130° |
| 2026-05-05 16:51 | -11.60882 | 88.81715 | 38930 ft | 527 kts | 130° |
| 2026-05-05 16:51 | -11.65773 | 88.87292 | 38929 ft | 527 kts | 130° |
| 2026-05-05 16:52 | -11.70671 | 88.92879 | 38949 ft | 528 kts | 130° |
| 2026-05-05 16:52 | -11.75566 | 88.98465 | 38931 ft | 529 kts | 130° |
| 2026-05-05 16:53 | -11.80475 | 89.04070 | 38934 ft | 529 kts | 130° |
| 2026-05-05 16:53 | -11.85357 | 89.09648 | 38950 ft | 529 kts | 130° |
| 2026-05-05 16:54 | -11.90266 | 89.15260 | 38934 ft | 529 kts | 130° |
| 2026-05-05 16:54 | -11.95172 | 89.20873 | 38934 ft | 529 kts | 130° |
| 2026-05-05 16:55 | -12.00084 | 89.26496 | 38951 ft | 530 kts | 130° |
| 2026-05-05 16:55 | -12.04998 | 89.32125 | 38934 ft | 531 kts | 130° |
| 2026-05-05 16:56 | -12.09926 | 89.37771 | 38938 ft | 532 kts | 130° |
| 2026-05-05 16:56 | -12.14851 | 89.43419 | 38938 ft | 533 kts | 130° |
| 2026-05-05 16:57 | -12.19785 | 89.49079 | 38941 ft | 533 kts | 130° |
| 2026-05-05 16:57 | -12.24723 | 89.54748 | 38938 ft | 533 kts | 130° |
| 2026-05-05 16:58 | -12.29621 | 89.60374 | 38940 ft | 533 kts | 130° |
| 2026-05-05 16:58 | -12.34556 | 89.66047 | 38943 ft | 533 kts | 130° |
| 2026-05-05 16:59 | -12.39489 | 89.71722 | 38944 ft | 533 kts | 130° |
| 2026-05-05 16:59 | -12.44434 | 89.77412 | 38945 ft | 534 kts | 130° |
| 2026-05-05 17:00 | -12.49346 | 89.83069 | 38946 ft | 535 kts | 130° |
| 2026-05-05 17:00 | -12.54297 | 89.88774 | 38946 ft | 536 kts | 130° |
| 2026-05-05 17:01 | -12.59256 | 89.94491 | 38945 ft | 536 kts | 130° |
| 2026-05-05 17:01 | -12.64181 | 90.00174 | 38943 ft | 536 kts | 130° |
| 2026-05-05 17:02 | -12.69126 | 90.05883 | 38943 ft | 536 kts | 130° |
| 2026-05-05 17:02 | -12.74078 | 90.11604 | 38943 ft | 536 kts | 130° |
| 2026-05-05 17:03 | -12.79023 | 90.17321 | 38948 ft | 537 kts | 130° |
| 2026-05-05 17:03 | -12.83956 | 90.23027 | 38946 ft | 538 kts | 130° |
| 2026-05-05 17:04 | -12.88923 | 90.28775 | 38943 ft | 538 kts | 130° |
| 2026-05-05 17:04 | -12.93886 | 90.34524 | 38943 ft | 538 kts | 130° |
| 2026-05-05 17:05 | -12.98853 | 90.40280 | 38945 ft | 538 kts | 130° |
| 2026-05-05 17:05 | -13.03814 | 90.46034 | 38946 ft | 538 kts | 130° |
| 2026-05-05 17:06 | -13.08774 | 90.51789 | 38952 ft | 538 kts | 130° |
| 2026-05-05 17:06 | -13.13732 | 90.57546 | 38957 ft | 538 kts | 130° |
| 2026-05-05 17:07 | -13.18697 | 90.63316 | 38950 ft | 539 kts | 130° |
| 2026-05-05 17:07 | -13.23631 | 90.69053 | 38950 ft | 539 kts | 130° |
| 2026-05-05 17:08 | -13.28592 | 90.74825 | 38953 ft | 539 kts | 130° |
| 2026-05-05 17:08 | -13.33559 | 90.80609 | 38952 ft | 539 kts | 130° |
| 2026-05-05 17:09 | -13.38521 | 90.86390 | 38958 ft | 539 kts | 130° |
| 2026-05-05 17:09 | -13.43477 | 90.92168 | 38957 ft | 539 kts | 130° |
| 2026-05-05 17:10 | -13.48431 | 90.97948 | 38958 ft | 539 kts | 130° |
| 2026-05-05 17:10 | -13.53390 | 91.03738 | 38961 ft | 540 kts | 130° |
| 2026-05-05 17:11 | -13.58333 | 91.09512 | 38961 ft | 541 kts | 130° |
| 2026-05-05 17:11 | -13.63301 | 91.15321 | 38961 ft | 539 kts | 130° |
| 2026-05-05 17:12 | -13.68264 | 91.21127 | 38965 ft | 541 kts | 130° |
| 2026-05-05 17:12 | -13.73236 | 91.26948 | 38962 ft | 542 kts | 130° |
| 2026-05-05 17:13 | -13.78210 | 91.32775 | 38965 ft | 542 kts | 130° |
| 2026-05-05 17:13 | -13.83181 | 91.38603 | 38965 ft | 542 kts | 130° |
| 2026-05-05 17:14 | -13.87957 | 91.44608 | 38966 ft | 542 kts | 127° |
| 2026-05-05 17:14 | -13.92571 | 91.50754 | 38968 ft | 542 kts | 127° |
| 2026-05-05 17:15 | -13.97184 | 91.56854 | 38972 ft | 543 kts | 127° |
| 2026-05-05 17:15 | -14.01868 | 91.62975 | 38970 ft | 544 kts | 127° |
| 2026-05-05 17:16 | -14.06565 | 91.69090 | 38970 ft | 544 kts | 127° |
| 2026-05-05 17:16 | -14.11265 | 91.75213 | 38972 ft | 544 kts | 127° |
| 2026-05-05 17:17 | -14.15957 | 91.81333 | 38972 ft | 544 kts | 127° |
| 2026-05-05 17:17 | -14.20654 | 91.87466 | 38971 ft | 544 kts | 127° |
| 2026-05-05 17:18 | -14.25350 | 91.93604 | 38972 ft | 545 kts | 128° |
| 2026-05-05 17:18 | -14.30013 | 91.99702 | 38974 ft | 546 kts | 128° |
| 2026-05-05 17:19 | -14.34720 | 92.05861 | 38971 ft | 546 kts | 128° |
| 2026-05-05 17:19 | -14.39423 | 92.12020 | 38971 ft | 546 kts | 128° |
| 2026-05-05 17:20 | -14.44127 | 92.18185 | 38971 ft | 546 kts | 128° |
| 2026-05-05 17:20 | -14.48830 | 92.24354 | 38971 ft | 546 kts | 128° |
| 2026-05-05 17:21 | -14.53538 | 92.30534 | 38974 ft | 546 kts | 128° |
| 2026-05-05 17:22 | -14.60551 | 92.39750 | 38974 ft | 546 kts | 128° |
| 2026-05-05 17:22 | -14.65241 | 92.45918 | 38980 ft | 546 kts | 128° |
| 2026-05-05 17:23 | -14.69944 | 92.52107 | 38978 ft | 546 kts | 128° |
| 2026-05-05 17:23 | -14.74628 | 92.58277 | 38977 ft | 546 kts | 128° |
| 2026-05-05 17:24 | -14.79320 | 92.64464 | 38976 ft | 546 kts | 128° |
| 2026-05-05 17:24 | -14.83972 | 92.70600 | 38975 ft | 545 kts | 128° |
| 2026-05-05 17:25 | -14.88645 | 92.76770 | 38975 ft | 545 kts | 128° |
| 2026-05-05 17:25 | -14.93326 | 92.82957 | 38979 ft | 546 kts | 128° |
| 2026-05-05 17:26 | -14.98005 | 92.89144 | 38981 ft | 546 kts | 128° |
| 2026-05-05 17:26 | -15.02687 | 92.95340 | 38977 ft | 547 kts | 128° |
| 2026-05-05 17:27 | -15.06578 | 93.00494 | 38979 ft | 547 kts | 128° |
| 2026-05-05 17:27 | -15.11264 | 93.06705 | 38979 ft | 547 kts | 128° |
| 2026-05-05 17:28 | -15.15941 | 93.12909 | 38979 ft | 546 kts | 128° |
| 2026-05-05 17:28 | -15.20587 | 93.19077 | 38982 ft | 546 kts | 128° |
| 2026-05-05 17:29 | -15.25252 | 93.25274 | 38981 ft | 546 kts | 128° |
| 2026-05-05 17:29 | -15.29927 | 93.31491 | 38983 ft | 547 kts | 128° |
| 2026-05-05 17:30 | -15.34606 | 93.37717 | 38985 ft | 548 kts | 128° |
| 2026-05-05 17:30 | -15.39293 | 93.43961 | 38985 ft | 548 kts | 128° |
| 2026-05-05 17:31 | -15.43973 | 93.50198 | 38985 ft | 548 kts | 128° |
| 2026-05-05 17:31 | -15.48649 | 93.56437 | 38988 ft | 548 kts | 128° |
| 2026-05-05 17:32 | -15.53330 | 93.62687 | 38986 ft | 548 kts | 128° |
| 2026-05-05 17:32 | -15.57974 | 93.68892 | 38988 ft | 548 kts | 128° |
| 2026-05-05 17:33 | -15.62650 | 93.75146 | 38992 ft | 549 kts | 128° |
| 2026-05-05 17:33 | -15.67335 | 93.81416 | 38995 ft | 550 kts | 128° |
| 2026-05-05 17:34 | -15.72022 | 93.87695 | 38994 ft | 550 kts | 128° |
| 2026-05-05 17:34 | -15.76702 | 93.93970 | 38993 ft | 550 kts | 128° |
| 2026-05-05 17:35 | -15.81381 | 94.00249 | 38995 ft | 550 kts | 128° |
| 2026-05-05 17:35 | -15.86064 | 94.06538 | 38994 ft | 550 kts | 128° |
| 2026-05-05 17:36 | -15.90713 | 94.12787 | 38996 ft | 550 kts | 128° |
| 2026-05-05 17:36 | -15.95396 | 94.19087 | 38998 ft | 550 kts | 128° |
| 2026-05-05 17:37 | -16.00075 | 94.25388 | 39002 ft | 551 kts | 128° |
| 2026-05-05 17:37 | -16.04753 | 94.31692 | 38994 ft | 551 kts | 128° |
| 2026-05-05 17:38 | -16.09407 | 94.37969 | 38994 ft | 551 kts | 128° |
| 2026-05-05 17:38 | -16.14086 | 94.44285 | 38996 ft | 551 kts | 128° |
| 2026-05-05 17:39 | -16.18762 | 94.50603 | 39000 ft | 551 kts | 128° |
| 2026-05-05 17:39 | -16.23439 | 94.56928 | 39003 ft | 551 kts | 128° |
| 2026-05-05 17:40 | -16.28121 | 94.63265 | 39005 ft | 552 kts | 128° |
| 2026-05-05 17:40 | -16.32803 | 94.69608 | 39007 ft | 553 kts | 128° |
| 2026-05-05 17:41 | -16.37496 | 94.75971 | 38996 ft | 553 kts | 128° |
| 2026-05-05 17:41 | -16.42149 | 94.82286 | 38996 ft | 553 kts | 128° |
| 2026-05-05 17:42 | -16.46834 | 94.88649 | 39000 ft | 553 kts | 128° |
| 2026-05-05 17:42 | -16.51515 | 94.95013 | 39002 ft | 553 kts | 128° |
| 2026-05-05 17:43 | -16.56203 | 95.01392 | 39000 ft | 553 kts | 128° |
| 2026-05-05 17:43 | -16.60884 | 95.07768 | 39005 ft | 553 kts | 128° |
| 2026-05-05 17:44 | -16.65568 | 95.14154 | 39007 ft | 554 kts | 129° |
| 2026-05-05 17:44 | -16.70255 | 95.20549 | 39006 ft | 556 kts | 128° |
| 2026-05-05 17:45 | -16.74925 | 95.26926 | 39008 ft | 556 kts | 128° |
| 2026-05-05 17:45 | -16.79623 | 95.33349 | 39008 ft | 556 kts | 128° |
| 2026-05-05 17:46 | -16.84314 | 95.39766 | 39008 ft | 556 kts | 128° |
| 2026-05-05 17:46 | -16.88998 | 95.46181 | 39008 ft | 556 kts | 128° |
| 2026-05-05 17:47 | -16.93684 | 95.52604 | 39008 ft | 556 kts | 128° |
| 2026-05-05 17:47 | -16.98373 | 95.59037 | 39014 ft | 556 kts | 129° |
| 2026-05-05 17:48 | -17.03057 | 95.65469 | 39005 ft | 557 kts | 129° |
| 2026-05-05 17:48 | -17.07746 | 95.71915 | 39008 ft | 557 kts | 129° |
| 2026-05-05 17:49 | -17.12407 | 95.78328 | 39017 ft | 557 kts | 129° |
| 2026-05-05 17:49 | -17.17098 | 95.84788 | 39005 ft | 556 kts | 129° |
| 2026-05-05 17:50 | -17.21778 | 95.91238 | 39014 ft | 556 kts | 129° |
| 2026-05-05 17:50 | -17.26458 | 95.97695 | 39016 ft | 557 kts | 129° |
| 2026-05-05 17:51 | -17.31135 | 96.04155 | 39023 ft | 557 kts | 129° |
| 2026-05-05 17:51 | -17.35782 | 96.10579 | 39005 ft | 556 kts | 129° |
| 2026-05-05 17:52 | -17.40446 | 96.17033 | 39009 ft | 555 kts | 129° |
| 2026-05-05 17:52 | -17.45108 | 96.23489 | 39012 ft | 555 kts | 129° |
| 2026-05-05 17:53 | -17.49766 | 96.29945 | 39017 ft | 555 kts | 129° |
| 2026-05-05 17:53 | -17.54423 | 96.36408 | 39031 ft | 555 kts | 129° |
| 2026-05-05 17:54 | -17.59043 | 96.42825 | 39011 ft | 555 kts | 129° |
| 2026-05-05 17:54 | -17.63694 | 96.49291 | 39011 ft | 555 kts | 129° |
| 2026-05-05 17:55 | -17.68349 | 96.55769 | 39023 ft | 557 kts | 129° |
| 2026-05-05 17:55 | -17.73014 | 96.62266 | 39020 ft | 557 kts | 129° |
| 2026-05-05 17:56 | -17.77678 | 96.68770 | 39020 ft | 557 kts | 129° |
| 2026-05-05 17:56 | -17.82315 | 96.75243 | 39021 ft | 557 kts | 129° |
| 2026-05-05 17:57 | -17.86969 | 96.81745 | 39021 ft | 557 kts | 129° |
| 2026-05-05 17:57 | -17.91626 | 96.88258 | 39020 ft | 557 kts | 129° |
| 2026-05-05 17:58 | -17.96278 | 96.94770 | 39021 ft | 557 kts | 129° |
| 2026-05-05 17:58 | -18.01189 | 97.01028 | 39037 ft | 553 kts | 138° |
| 2026-05-05 17:59 | -18.06746 | 97.06627 | 39020 ft | 552 kts | 140° |
| 2026-05-05 17:59 | -18.12385 | 97.12112 | 39021 ft | 552 kts | 140° |
| 2026-05-05 18:00 | -18.18043 | 97.17604 | 39022 ft | 553 kts | 140° |
| 2026-05-05 18:00 | -18.23647 | 97.23068 | 39022 ft | 553 kts | 140° |
| 2026-05-05 18:01 | -18.29275 | 97.28575 | 39032 ft | 553 kts | 140° |
| 2026-05-05 18:01 | -18.34911 | 97.34096 | 39023 ft | 553 kts | 140° |
| 2026-05-05 18:02 | -18.40547 | 97.39622 | 39023 ft | 553 kts | 140° |
| 2026-05-05 18:02 | -18.46177 | 97.45146 | 39026 ft | 553 kts | 140° |
| 2026-05-05 18:03 | -18.51811 | 97.50679 | 39026 ft | 553 kts | 140° |
| 2026-05-05 18:03 | -18.57405 | 97.56179 | 39029 ft | 553 kts | 140° |
| 2026-05-05 18:04 | -18.63029 | 97.61713 | 39040 ft | 553 kts | 140° |
| 2026-05-05 18:04 | -18.68651 | 97.67250 | 39029 ft | 552 kts | 140° |
| 2026-05-05 18:05 | -18.74265 | 97.72785 | 39031 ft | 552 kts | 140° |
| 2026-05-05 18:05 | -18.79871 | 97.78316 | 39031 ft | 552 kts | 140° |
| 2026-05-05 18:06 | -18.85475 | 97.83852 | 39035 ft | 552 kts | 140° |
| 2026-05-05 18:06 | -18.91086 | 97.89400 | 39034 ft | 552 kts | 140° |
| 2026-05-05 18:07 | -18.96650 | 97.94907 | 39036 ft | 552 kts | 140° |
| 2026-05-05 18:07 | -19.02254 | 98.00460 | 39034 ft | 550 kts | 141° |
| 2026-05-05 18:08 | -19.07838 | 98.05996 | 39037 ft | 550 kts | 141° |
| 2026-05-05 18:08 | -19.13415 | 98.11531 | 39035 ft | 549 kts | 141° |
| 2026-05-05 18:09 | -19.18984 | 98.17063 | 39033 ft | 549 kts | 141° |
| 2026-05-05 18:09 | -19.24566 | 98.22615 | 39039 ft | 549 kts | 141° |
| 2026-05-05 18:10 | -19.30103 | 98.28127 | 39040 ft | 549 kts | 141° |
| 2026-05-05 18:10 | -19.35668 | 98.33672 | 39040 ft | 549 kts | 141° |
| 2026-05-05 18:11 | -19.41231 | 98.39221 | 39040 ft | 548 kts | 141° |
| 2026-05-05 18:11 | -19.46785 | 98.44766 | 39042 ft | 548 kts | 141° |
| 2026-05-05 18:12 | -19.52329 | 98.50306 | 39042 ft | 547 kts | 141° |
| 2026-05-05 18:12 | -19.57833 | 98.55812 | 39042 ft | 548 kts | 141° |
| 2026-05-05 18:13 | -19.63372 | 98.61358 | 39046 ft | 548 kts | 141° |
| 2026-05-05 18:13 | -19.68920 | 98.66920 | 39042 ft | 548 kts | 141° |
| 2026-05-05 18:14 | -19.74465 | 98.72483 | 39048 ft | 548 kts | 141° |
| 2026-05-05 18:14 | -19.80000 | 98.78043 | 39045 ft | 547 kts | 141° |
| 2026-05-05 18:15 | -19.85538 | 98.83611 | 39044 ft | 547 kts | 141° |
| 2026-05-05 18:15 | -19.91032 | 98.89139 | 39045 ft | 547 kts | 141° |
| 2026-05-05 18:16 | -19.96564 | 98.94712 | 39045 ft | 548 kts | 142° |
| 2026-05-05 18:16 | -20.01173 | 98.99359 | 39045 ft | 548 kts | 142° |
| 2026-05-05 18:17 | -20.06703 | 99.04940 | 39042 ft | 548 kts | 142° |
| 2026-05-05 18:17 | -20.12243 | 99.10538 | 39045 ft | 548 kts | 142° |
| 2026-05-05 18:18 | -20.17775 | 99.16133 | 39043 ft | 548 kts | 142° |
| 2026-05-05 18:18 | -20.23269 | 99.21696 | 39063 ft | 548 kts | 142° |
| 2026-05-05 18:19 | -20.28798 | 99.27298 | 39049 ft | 549 kts | 142° |
| 2026-05-05 18:19 | -20.34333 | 99.32913 | 39047 ft | 549 kts | 142° |
| 2026-05-05 18:20 | -20.39869 | 99.38535 | 39048 ft | 549 kts | 142° |
| 2026-05-05 18:20 | -20.45395 | 99.44153 | 39050 ft | 549 kts | 142° |
| 2026-05-05 18:21 | -20.50924 | 99.49780 | 39050 ft | 549 kts | 142° |
| 2026-05-05 18:21 | -20.56445 | 99.55405 | 39060 ft | 549 kts | 142° |
| 2026-05-05 18:22 | -20.61942 | 99.61011 | 39051 ft | 550 kts | 142° |
| 2026-05-05 18:22 | -20.67476 | 99.66660 | 39050 ft | 550 kts | 142° |
| 2026-05-05 18:23 | -20.73011 | 99.72317 | 39051 ft | 550 kts | 142° |
| 2026-05-05 18:23 | -20.78544 | 99.77977 | 39051 ft | 551 kts | 142° |
| 2026-05-05 18:24 | -20.84080 | 99.83647 | 39059 ft | 551 kts | 142° |
| 2026-05-05 18:24 | -20.89623 | 99.89330 | 39054 ft | 552 kts | 142° |
| 2026-05-05 18:25 | -20.95162 | 99.95016 | 39049 ft | 552 kts | 142° |
| 2026-05-05 18:25 | -21.00671 | 100.00678 | 39055 ft | 552 kts | 142° |
| 2026-05-05 18:26 | -21.05919 | 100.06769 | 39056 ft | 558 kts | 136° |
| 2026-05-05 18:26 | -21.10926 | 100.13135 | 39053 ft | 559 kts | 136° |
| 2026-05-05 18:27 | -21.15981 | 100.19479 | 39052 ft | 558 kts | 137° |
| 2026-05-05 18:27 | -21.21072 | 100.25747 | 39052 ft | 557 kts | 137° |
| 2026-05-05 18:28 | -21.28697 | 100.35078 | 39054 ft | 557 kts | 137° |
| 2026-05-05 18:28 | -21.33797 | 100.41330 | 39054 ft | 557 kts | 137° |
| 2026-05-05 18:29 | -21.38894 | 100.47592 | 39052 ft | 557 kts | 137° |
| 2026-05-05 18:29 | -21.43986 | 100.53857 | 39052 ft | 557 kts | 137° |
| 2026-05-05 18:30 | -21.49089 | 100.60140 | 39060 ft | 558 kts | 137° |
| 2026-05-05 18:30 | -21.54199 | 100.66441 | 39052 ft | 558 kts | 137° |
| 2026-05-05 18:31 | -21.59267 | 100.72697 | 39050 ft | 558 kts | 137° |
| 2026-05-05 18:31 | -21.64363 | 100.78995 | 39051 ft | 558 kts | 137° |
| 2026-05-05 18:32 | -21.69458 | 100.85300 | 39049 ft | 559 kts | 137° |
| 2026-05-05 18:32 | -21.74563 | 100.91622 | 39052 ft | 559 kts | 137° |
| 2026-05-05 18:33 | -21.79637 | 100.97916 | 39059 ft | 560 kts | 137° |
| 2026-05-05 18:33 | -21.84754 | 101.04267 | 39053 ft | 561 kts | 137° |
| 2026-05-05 18:34 | -21.89865 | 101.10622 | 39053 ft | 561 kts | 137° |
| 2026-05-05 18:34 | -21.94948 | 101.16949 | 39053 ft | 561 kts | 137° |
| 2026-05-05 18:35 | -22.00051 | 101.23308 | 39056 ft | 561 kts | 137° |
| 2026-05-05 18:35 | -22.05158 | 101.29680 | 39061 ft | 561 kts | 137° |
| 2026-05-05 18:36 | -22.10274 | 101.36069 | 39055 ft | 563 kts | 137° |
| 2026-05-05 18:36 | -22.15397 | 101.42475 | 39051 ft | 564 kts | 137° |
| 2026-05-05 18:37 | -22.20520 | 101.48892 | 39056 ft | 564 kts | 137° |
| 2026-05-05 18:37 | -22.25640 | 101.55311 | 39057 ft | 564 kts | 137° |
| 2026-05-05 18:38 | -22.30760 | 101.61739 | 39057 ft | 564 kts | 137° |
| 2026-05-05 18:38 | -22.35874 | 101.68165 | 39074 ft | 564 kts | 137° |
| 2026-05-05 18:39 | -22.40968 | 101.74574 | 39054 ft | 565 kts | 137° |
| 2026-05-05 18:39 | -22.46088 | 101.81025 | 39054 ft | 565 kts | 137° |
| 2026-05-05 18:40 | -22.51204 | 101.87478 | 39053 ft | 565 kts | 137° |
| 2026-05-05 18:40 | -22.56316 | 101.93935 | 39056 ft | 565 kts | 137° |
| 2026-05-05 18:41 | -22.61430 | 102.00403 | 39056 ft | 565 kts | 137° |
| 2026-05-05 18:41 | -22.66512 | 102.06838 | 39074 ft | 566 kts | 137° |
| 2026-05-05 18:42 | -22.71634 | 102.13330 | 39056 ft | 567 kts | 137° |
| 2026-05-05 18:42 | -22.76754 | 102.19828 | 39061 ft | 567 kts | 137° |
| 2026-05-05 18:43 | -22.81879 | 102.26342 | 39058 ft | 567 kts | 137° |
| 2026-05-05 18:43 | -22.86997 | 102.32856 | 39059 ft | 567 kts | 137° |
| 2026-05-05 18:44 | -22.92076 | 102.39328 | 39061 ft | 567 kts | 137° |
| 2026-05-05 18:44 | -22.97189 | 102.45850 | 39063 ft | 568 kts | 137° |
| 2026-05-05 18:45 | -23.02311 | 102.52393 | 39064 ft | 569 kts | 137° |
| 2026-05-05 18:45 | -23.07442 | 102.58956 | 39064 ft | 569 kts | 137° |
| 2026-05-05 18:46 | -23.12572 | 102.65527 | 39067 ft | 569 kts | 137° |
| 2026-05-05 18:46 | -23.17656 | 102.72047 | 39067 ft | 569 kts | 137° |
| 2026-05-05 18:47 | -23.22770 | 102.78613 | 39097 ft | 569 kts | 138° |
| 2026-05-05 18:47 | -23.27868 | 102.85167 | 39074 ft | 571 kts | 137° |
| 2026-05-05 18:48 | -23.30415 | 102.88445 | 39203 ft | 568 kts | 137° |
| 2026-05-05 18:48 | -23.32951 | 102.91718 | 39472 ft | 563 kts | 137° |
| 2026-05-05 18:48 | -23.35466 | 102.94964 | 39750 ft | 559 kts | 137° |
| 2026-05-05 18:48 | -23.37968 | 102.98194 | 40035 ft | 555 kts | 137° |
| 2026-05-05 18:49 | -23.40445 | 103.01391 | 40321 ft | 552 kts | 137° |
| 2026-05-05 18:49 | -23.42917 | 103.04582 | 40611 ft | 549 kts | 137° |
| 2026-05-05 18:49 | -23.45365 | 103.07745 | 40907 ft | 545 kts | 137° |
| 2026-05-05 18:49 | -23.47815 | 103.10909 | 41074 ft | 545 kts | 137° |
| 2026-05-05 18:50 | -23.52737 | 103.17265 | 41081 ft | 552 kts | 138° |
| 2026-05-05 18:50 | -23.57678 | 103.23655 | 41074 ft | 557 kts | 137° |
| 2026-05-05 18:51 | -23.62676 | 103.30140 | 41074 ft | 559 kts | 137° |
| 2026-05-05 18:51 | -23.67684 | 103.36650 | 41080 ft | 561 kts | 137° |
| 2026-05-05 18:52 | -23.72704 | 103.43183 | 41080 ft | 562 kts | 137° |
| 2026-05-05 18:52 | -23.77722 | 103.49720 | 41080 ft | 562 kts | 137° |
| 2026-05-05 18:53 | -23.82717 | 103.56234 | 41091 ft | 563 kts | 137° |
| 2026-05-05 18:53 | -23.87748 | 103.62805 | 41091 ft | 563 kts | 137° |
| 2026-05-05 18:54 | -23.92780 | 103.69385 | 41089 ft | 563 kts | 137° |
| 2026-05-05 18:54 | -23.97796 | 103.75953 | 41092 ft | 563 kts | 137° |
| 2026-05-05 18:55 | -24.02815 | 103.82533 | 41095 ft | 563 kts | 137° |
| 2026-05-05 18:55 | -24.07837 | 103.89126 | 41086 ft | 563 kts | 137° |
| 2026-05-05 18:56 | -24.12812 | 103.95666 | 41105 ft | 563 kts | 137° |
| 2026-05-05 18:56 | -24.17829 | 104.02271 | 41086 ft | 563 kts | 137° |
| 2026-05-05 18:57 | -24.22839 | 104.08875 | 41088 ft | 563 kts | 137° |
| 2026-05-05 18:57 | -24.27842 | 104.15479 | 41106 ft | 563 kts | 137° |
| 2026-05-05 18:58 | -24.32845 | 104.22092 | 41099 ft | 563 kts | 137° |
| 2026-05-05 18:58 | -24.37827 | 104.28684 | 41104 ft | 565 kts | 137° |
| 2026-05-05 18:59 | -24.42839 | 104.35327 | 41100 ft | 565 kts | 137° |
| 2026-05-05 18:59 | -24.47856 | 104.41986 | 41102 ft | 565 kts | 137° |
| 2026-05-05 19:00 | -24.52861 | 104.48640 | 41106 ft | 565 kts | 137° |
| 2026-05-05 19:00 | -24.57866 | 104.55299 | 41107 ft | 565 kts | 137° |
| 2026-05-05 19:01 | -24.62848 | 104.61938 | 41118 ft | 566 kts | 138° |
| 2026-05-05 19:01 | -24.67867 | 104.68635 | 41111 ft | 567 kts | 137° |
| 2026-05-05 19:02 | -24.72879 | 104.75334 | 41111 ft | 567 kts | 137° |
| 2026-05-05 19:02 | -24.77898 | 104.82051 | 41114 ft | 567 kts | 137° |
| 2026-05-05 19:03 | -24.82905 | 104.88762 | 41114 ft | 567 kts | 137° |
| 2026-05-05 19:03 | -24.87919 | 104.95491 | 41129 ft | 567 kts | 137° |
| 2026-05-05 19:04 | -24.92903 | 105.02189 | 41115 ft | 568 kts | 138° |
| 2026-05-05 19:04 | -24.97102 | 105.07839 | 41119 ft | 568 kts | 137° |
| 2026-05-05 19:05 | -25.02076 | 105.14542 | 41119 ft | 568 kts | 137° |
| 2026-05-05 19:05 | -25.07081 | 105.21296 | 41118 ft | 568 kts | 137° |
| 2026-05-05 19:06 | -25.12092 | 105.28067 | 41126 ft | 568 kts | 137° |
| 2026-05-05 19:06 | -25.17096 | 105.34838 | 41134 ft | 570 kts | 137° |
| 2026-05-05 19:07 | -25.22109 | 105.41631 | 41129 ft | 569 kts | 137° |
| 2026-05-05 19:07 | -25.27075 | 105.48371 | 41129 ft | 569 kts | 137° |
| 2026-05-05 19:08 | -25.32072 | 105.55162 | 41135 ft | 569 kts | 137° |
| 2026-05-05 19:08 | -25.37069 | 105.61964 | 41135 ft | 569 kts | 137° |
| 2026-05-05 19:09 | -25.42066 | 105.68775 | 41156 ft | 570 kts | 137° |
| 2026-05-05 19:09 | -25.47058 | 105.75590 | 41140 ft | 569 kts | 137° |
| 2026-05-05 19:10 | -25.52041 | 105.82402 | 41143 ft | 569 kts | 137° |
| 2026-05-05 19:10 | -25.56994 | 105.89182 | 41143 ft | 569 kts | 137° |
| 2026-05-05 19:11 | -25.61972 | 105.96006 | 41149 ft | 569 kts | 137° |
| 2026-05-05 19:11 | -25.66949 | 106.02840 | 41182 ft | 569 kts | 137° |
| 2026-05-05 19:12 | -25.71920 | 106.09675 | 41151 ft | 569 kts | 137° |
| 2026-05-05 19:12 | -25.76881 | 106.16507 | 41150 ft | 569 kts | 137° |
| 2026-05-05 19:13 | -25.81807 | 106.23301 | 41153 ft | 568 kts | 137° |
| 2026-05-05 19:13 | -25.86761 | 106.30143 | 41151 ft | 568 kts | 137° |
| 2026-05-05 19:14 | -25.91710 | 106.36988 | 41160 ft | 568 kts | 137° |
| 2026-05-05 19:14 | -25.96651 | 106.43834 | 41156 ft | 567 kts | 137° |
| 2026-05-05 19:15 | -26.01737 | 106.50455 | 41159 ft | 559 kts | 142° |
| 2026-05-05 19:15 | -26.07078 | 106.56741 | 41162 ft | 558 kts | 142° |
| 2026-05-05 19:16 | -26.12440 | 106.62965 | 41162 ft | 557 kts | 143° |
| 2026-05-05 19:16 | -26.17808 | 106.69198 | 41165 ft | 557 kts | 142° |
| 2026-05-05 19:17 | -26.23170 | 106.75448 | 41164 ft | 557 kts | 142° |
| 2026-05-05 19:17 | -26.28472 | 106.81643 | 41171 ft | 556 kts | 142° |
| 2026-05-05 19:18 | -26.33807 | 106.87886 | 41176 ft | 555 kts | 142° |
| 2026-05-05 19:18 | -26.39137 | 106.94133 | 41176 ft | 555 kts | 142° |
| 2026-05-05 19:19 | -26.44463 | 107.00381 | 41221 ft | 555 kts | 142° |
| 2026-05-05 19:19 | -26.49779 | 107.06629 | 41175 ft | 553 kts | 142° |
| 2026-05-05 19:20 | -26.55078 | 107.12867 | 41178 ft | 552 kts | 142° |
| 2026-05-05 19:20 | -26.60358 | 107.19088 | 41175 ft | 552 kts | 142° |
| 2026-05-05 19:21 | -26.65605 | 107.25280 | 41181 ft | 552 kts | 142° |
| 2026-05-05 19:21 | -26.70881 | 107.31515 | 41181 ft | 552 kts | 142° |
| 2026-05-05 19:22 | -26.76153 | 107.37755 | 41187 ft | 552 kts | 142° |
| 2026-05-05 19:22 | -26.81419 | 107.43997 | 41186 ft | 551 kts | 142° |
| 2026-05-05 19:23 | -26.86680 | 107.50242 | 41190 ft | 551 kts | 142° |
| 2026-05-05 19:23 | -26.91938 | 107.56492 | 41190 ft | 551 kts | 142° |
| 2026-05-05 19:24 | -26.97194 | 107.62749 | 41192 ft | 550 kts | 141° |
| 2026-05-05 19:24 | -27.02436 | 107.69000 | 41195 ft | 549 kts | 141° |
| 2026-05-05 19:25 | -27.07632 | 107.75205 | 41206 ft | 549 kts | 141° |
| 2026-05-05 19:25 | -27.12857 | 107.81452 | 41202 ft | 548 kts | 141° |
| 2026-05-05 19:26 | -27.18076 | 107.87700 | 41204 ft | 548 kts | 141° |
| 2026-05-05 19:26 | -27.23289 | 107.93950 | 41204 ft | 547 kts | 141° |
| 2026-05-05 19:27 | -27.28487 | 108.00195 | 41211 ft | 546 kts | 141° |
| 2026-05-05 19:27 | -27.33665 | 108.06424 | 41206 ft | 545 kts | 141° |
| 2026-05-05 19:28 | -27.38844 | 108.12661 | 41211 ft | 545 kts | 141° |
| 2026-05-05 19:28 | -27.43980 | 108.18856 | 41211 ft | 545 kts | 140° |
| 2026-05-05 19:29 | -27.49144 | 108.25093 | 41213 ft | 544 kts | 140° |
| 2026-05-05 19:29 | -27.54295 | 108.31327 | 41217 ft | 543 kts | 140° |
| 2026-05-05 19:30 | -27.59440 | 108.37560 | 41219 ft | 543 kts | 140° |
| 2026-05-05 19:30 | -27.64577 | 108.43793 | 41223 ft | 543 kts | 140° |
| 2026-05-05 19:31 | -27.69720 | 108.50042 | 41235 ft | 542 kts | 140° |
| 2026-05-05 19:31 | -27.74849 | 108.56285 | 41222 ft | 541 kts | 140° |
| 2026-05-05 19:32 | -27.79957 | 108.62512 | 41225 ft | 540 kts | 140° |
| 2026-05-05 19:32 | -27.85071 | 108.68754 | 41227 ft | 540 kts | 140° |
| 2026-05-05 19:33 | -27.90137 | 108.74946 | 41227 ft | 540 kts | 139° |
| 2026-05-05 19:33 | -27.95240 | 108.81192 | 41238 ft | 540 kts | 139° |
| 2026-05-05 19:34 | -28.00329 | 108.87433 | 41225 ft | 539 kts | 139° |
| 2026-05-05 19:35 | -28.07947 | 108.96792 | 41242 ft | 538 kts | 139° |
| 2026-05-05 19:35 | -28.13021 | 109.03036 | 41229 ft | 538 kts | 139° |
| 2026-05-05 19:36 | -28.18098 | 109.09293 | 41248 ft | 538 kts | 139° |
| 2026-05-05 19:36 | -28.23127 | 109.15502 | 41239 ft | 537 kts | 139° |
| 2026-05-05 19:37 | -28.28188 | 109.21759 | 41241 ft | 537 kts | 139° |
| 2026-05-05 19:37 | -28.33235 | 109.28008 | 41239 ft | 537 kts | 139° |
| 2026-05-05 19:38 | -28.38276 | 109.34259 | 41239 ft | 537 kts | 139° |
| 2026-05-05 19:38 | -28.43323 | 109.40526 | 41245 ft | 536 kts | 139° |
| 2026-05-05 19:39 | -28.48328 | 109.46752 | 41251 ft | 536 kts | 139° |
| 2026-05-05 19:39 | -28.53353 | 109.53013 | 41242 ft | 536 kts | 139° |
| 2026-05-05 19:40 | -28.58376 | 109.59279 | 41249 ft | 535 kts | 139° |
| 2026-05-05 19:40 | -28.63395 | 109.65550 | 41252 ft | 535 kts | 139° |
| 2026-05-05 19:41 | -28.68372 | 109.71778 | 41247 ft | 535 kts | 138° |
| 2026-05-05 19:41 | -28.73372 | 109.78046 | 41249 ft | 534 kts | 138° |
| 2026-05-05 19:42 | -28.78365 | 109.84314 | 41250 ft | 534 kts | 138° |
| 2026-05-05 19:42 | -28.83353 | 109.90584 | 41261 ft | 533 kts | 138° |
| 2026-05-05 19:43 | -28.88342 | 109.96866 | 41267 ft | 533 kts | 138° |
| 2026-05-05 19:43 | -28.93310 | 110.03131 | 41260 ft | 532 kts | 138° |
| 2026-05-05 19:44 | -28.98239 | 110.09357 | 41265 ft | 531 kts | 137° |
| 2026-05-05 19:44 | -29.03199 | 110.15631 | 41266 ft | 531 kts | 137° |
| 2026-05-05 19:45 | -29.08152 | 110.21905 | 41266 ft | 531 kts | 137° |
| 2026-05-05 19:45 | -29.13100 | 110.28184 | 41265 ft | 531 kts | 137° |
| 2026-05-05 19:46 | -29.18020 | 110.34437 | 41268 ft | 531 kts | 137° |
| 2026-05-05 19:46 | -29.22961 | 110.40726 | 41268 ft | 531 kts | 137° |
| 2026-05-05 19:47 | -29.27898 | 110.47019 | 41270 ft | 531 kts | 137° |
| 2026-05-05 19:47 | -29.32836 | 110.53324 | 41293 ft | 531 kts | 137° |
| 2026-05-05 19:48 | -29.37768 | 110.59631 | 41274 ft | 531 kts | 137° |
| 2026-05-05 19:48 | -29.42694 | 110.65942 | 41270 ft | 530 kts | 137° |
| 2026-05-05 19:49 | -29.47583 | 110.72213 | 41275 ft | 530 kts | 137° |
| 2026-05-05 19:49 | -29.52495 | 110.78523 | 41280 ft | 530 kts | 137° |
| 2026-05-05 19:50 | -29.57401 | 110.84838 | 41287 ft | 530 kts | 137° |
| 2026-05-05 19:50 | -29.62311 | 110.91167 | 41281 ft | 529 kts | 137° |
| 2026-05-05 19:51 | -29.67179 | 110.97451 | 41281 ft | 529 kts | 137° |
| 2026-05-05 19:51 | -29.72074 | 111.03779 | 41285 ft | 529 kts | 137° |
| 2026-05-05 19:52 | -29.76963 | 111.10111 | 41284 ft | 529 kts | 137° |
| 2026-05-05 19:52 | -29.81851 | 111.16452 | 41288 ft | 528 kts | 137° |
| 2026-05-05 19:53 | -29.86726 | 111.22785 | 41293 ft | 528 kts | 137° |
| 2026-05-05 19:53 | -29.91595 | 111.29122 | 41286 ft | 528 kts | 137° |
| 2026-05-05 19:54 | -29.95641 | 111.34394 | 41289 ft | 527 kts | 137° |
| 2026-05-05 19:54 | -30.00503 | 111.40739 | 41300 ft | 527 kts | 137° |
| 2026-05-05 19:55 | -30.05358 | 111.47085 | 41293 ft | 527 kts | 137° |
| 2026-05-05 19:55 | -30.10176 | 111.53394 | 41296 ft | 526 kts | 137° |
| 2026-05-05 19:56 | -30.15020 | 111.59746 | 41301 ft | 526 kts | 137° |
| 2026-05-05 19:56 | -30.19854 | 111.66096 | 41299 ft | 526 kts | 136° |
| 2026-05-05 19:57 | -30.24687 | 111.72454 | 41308 ft | 526 kts | 136° |
| 2026-05-05 19:57 | -30.29514 | 111.78816 | 41306 ft | 525 kts | 136° |
| 2026-05-05 19:58 | -30.34332 | 111.85175 | 41304 ft | 525 kts | 136° |
| 2026-05-05 19:58 | -30.39148 | 111.91542 | 41295 ft | 525 kts | 136° |
| 2026-05-05 19:59 | -30.43929 | 111.97872 | 41305 ft | 524 kts | 136° |
| 2026-05-05 19:59 | -30.48722 | 112.04230 | 41321 ft | 523 kts | 136° |
| 2026-05-05 20:00 | -30.53512 | 112.10594 | 41309 ft | 523 kts | 136° |
| 2026-05-05 20:00 | -30.58301 | 112.16966 | 41319 ft | 523 kts | 136° |
| 2026-05-05 20:01 | -30.63086 | 112.23343 | 41316 ft | 523 kts | 136° |
| 2026-05-05 20:01 | -30.67865 | 112.29723 | 41319 ft | 522 kts | 136° |
| 2026-05-05 20:02 | -30.72604 | 112.36062 | 41320 ft | 521 kts | 136° |
| 2026-05-05 20:02 | -30.77358 | 112.42429 | 41320 ft | 521 kts | 136° |
| 2026-05-05 20:03 | -30.82109 | 112.48803 | 41320 ft | 521 kts | 136° |
| 2026-05-05 20:03 | -30.86861 | 112.55188 | 41327 ft | 521 kts | 135° |
| 2026-05-05 20:04 | -30.91594 | 112.61560 | 41319 ft | 520 kts | 135° |
| 2026-05-05 20:04 | -30.96320 | 112.67932 | 41320 ft | 519 kts | 135° |
| 2026-05-05 20:05 | -31.01042 | 112.74309 | 41325 ft | 519 kts | 135° |
| 2026-05-05 20:05 | -31.05758 | 112.80689 | 41326 ft | 519 kts | 135° |
| 2026-05-05 20:06 | -31.10467 | 112.87068 | 41320 ft | 518 kts | 135° |
| 2026-05-05 20:06 | -31.15172 | 112.93456 | 41330 ft | 518 kts | 135° |
| 2026-05-05 20:07 | -31.19860 | 112.99829 | 41330 ft | 517 kts | 135° |
| 2026-05-05 20:07 | -31.24520 | 113.06174 | 41336 ft | 517 kts | 135° |
| 2026-05-05 20:08 | -31.29207 | 113.12566 | 41338 ft | 518 kts | 135° |
| 2026-05-05 20:08 | -31.33892 | 113.18968 | 41337 ft | 518 kts | 135° |
| 2026-05-05 20:09 | -31.38568 | 113.25367 | 41331 ft | 517 kts | 135° |
| 2026-05-05 20:09 | -31.43246 | 113.31781 | 41308 ft | 516 kts | 135° |
| 2026-05-05 20:09 | -31.45474 | 113.35061 | 41021 ft | 515 kts | 128° |
| 2026-05-05 20:10 | -31.47259 | 113.38657 | 40673 ft | 518 kts | 117° |
| 2026-05-05 20:10 | -31.48497 | 113.42629 | 40341 ft | 520 kts | 107° |
| 2026-05-05 20:10 | -31.49395 | 113.46738 | 39975 ft | 521 kts | 105° |
| 2026-05-05 20:10 | -31.50190 | 113.50880 | 39634 ft | 521 kts | 104° |
| 2026-05-05 20:11 | -31.50936 | 113.55037 | 39319 ft | 520 kts | 104° |
| 2026-05-05 20:11 | -31.51665 | 113.59189 | 39001 ft | 519 kts | 104° |
| 2026-05-05 20:11 | -31.52393 | 113.63331 | 38618 ft | 519 kts | 104° |
| 2026-05-05 20:11 | -31.53127 | 113.67461 | 38230 ft | 518 kts | 104° |
| 2026-05-05 20:12 | -31.53859 | 113.71542 | 37861 ft | 518 kts | 104° |
| 2026-05-05 20:12 | -31.54606 | 113.75677 | 37488 ft | 517 kts | 104° |
| 2026-05-05 20:12 | -31.55354 | 113.79806 | 37101 ft | 518 kts | 104° |
| 2026-05-05 20:12 | -31.56103 | 113.83942 | 36727 ft | 518 kts | 104° |
| 2026-05-05 20:13 | -31.56851 | 113.88073 | 36356 ft | 517 kts | 104° |
| 2026-05-05 20:13 | -31.57595 | 113.92198 | 35990 ft | 517 kts | 104° |
| 2026-05-05 20:13 | -31.58337 | 113.96337 | 35530 ft | 519 kts | 103° |
| 2026-05-05 20:13 | -31.59082 | 114.00486 | 35080 ft | 519 kts | 103° |
| 2026-05-05 20:14 | -31.59824 | 114.04624 | 34688 ft | 518 kts | 103° |
| 2026-05-05 20:14 | -31.60562 | 114.08755 | 34262 ft | 518 kts | 103° |
| 2026-05-05 20:14 | -31.61294 | 114.12858 | 33668 ft | 520 kts | 103° |
| 2026-05-05 20:14 | -31.62034 | 114.17014 | 33171 ft | 520 kts | 103° |
| 2026-05-05 20:15 | -31.62772 | 114.21166 | 32669 ft | 520 kts | 103° |
| 2026-05-05 20:15 | -31.63508 | 114.25319 | 32152 ft | 521 kts | 103° |
| 2026-05-05 20:15 | -31.64246 | 114.29484 | 31621 ft | 521 kts | 103° |
| 2026-05-05 20:15 | -31.64982 | 114.33649 | 31178 ft | 520 kts | 103° |
| 2026-05-05 20:16 | -31.65715 | 114.37812 | 30646 ft | 521 kts | 104° |
| 2026-05-05 20:16 | -31.66451 | 114.41993 | 30040 ft | 523 kts | 103° |
| 2026-05-05 20:16 | -31.67184 | 114.46166 | 29611 ft | 521 kts | 103° |
| 2026-05-05 20:16 | -31.67911 | 114.50323 | 29331 ft | 518 kts | 103° |
| 2026-05-05 20:17 | -31.68634 | 114.54462 | 28975 ft | 518 kts | 103° |
| 2026-05-05 20:17 | -31.69356 | 114.58594 | 28751 ft | 510 kts | 103° |
| 2026-05-05 20:17 | -31.70040 | 114.62528 | 28057 ft | 487 kts | 103° |
| 2026-05-05 20:17 | -31.70708 | 114.66377 | 26733 ft | 478 kts | 103° |
| 2026-05-05 20:18 | -31.71373 | 114.70206 | 25101 ft | 479 kts | 102° |
| 2026-05-05 20:18 | -31.72036 | 114.74025 | 23721 ft | 473 kts | 102° |
| 2026-05-05 20:18 | -31.72684 | 114.77776 | 22245 ft | 464 kts | 103° |
| 2026-05-05 20:18 | -31.73319 | 114.81456 | 20847 ft | 455 kts | 103° |
| 2026-05-05 20:19 | -31.73939 | 114.85056 | 19549 ft | 445 kts | 103° |
| 2026-05-05 20:19 | -31.74546 | 114.88582 | 18245 ft | 435 kts | 102° |
| 2026-05-05 20:19 | -31.75135 | 114.92030 | 16843 ft | 425 kts | 102° |
| 2026-05-05 20:19 | -31.75707 | 114.95391 | 15582 ft | 414 kts | 103° |
| 2026-05-05 20:20 | -31.76267 | 114.98662 | 14288 ft | 404 kts | 103° |
| 2026-05-05 20:20 | -31.76814 | 115.01858 | 12941 ft | 395 kts | 103° |
| 2026-05-05 20:20 | -31.77339 | 115.04944 | 12208 ft | 372 kts | 103° |
| 2026-05-05 20:20 | -31.77825 | 115.07818 | 11762 ft | 345 kts | 104° |
| 2026-05-05 20:21 | -31.78277 | 115.10481 | 11358 ft | 321 kts | 104° |
| 2026-05-05 20:21 | -31.78699 | 115.12965 | 10985 ft | 300 kts | 103° |
| 2026-05-05 20:21 | -31.79100 | 115.15303 | 10583 ft | 284 kts | 103° |
| 2026-05-05 20:21 | -31.79478 | 115.17530 | 10188 ft | 272 kts | 104° |
| 2026-05-05 20:22 | -31.79848 | 115.19711 | 10014 ft | 271 kts | 104° |
| 2026-05-05 20:22 | -31.80218 | 115.21889 | 9734 ft | 270 kts | 104° |
| 2026-05-05 20:22 | -31.80583 | 115.24046 | 9421 ft | 268 kts | 103° |
| 2026-05-05 20:22 | -31.80950 | 115.26205 | 9125 ft | 269 kts | 104° |
| 2026-05-05 20:23 | -31.81321 | 115.28349 | 8836 ft | 266 kts | 105° |
| 2026-05-05 20:23 | -31.81794 | 115.30422 | 8560 ft | 263 kts | 109° |
| 2026-05-05 20:23 | -31.82301 | 115.32472 | 8280 ft | 261 kts | 109° |
| 2026-05-05 20:23 | -31.82803 | 115.34531 | 7997 ft | 262 kts | 109° |
| 2026-05-05 20:24 | -31.83294 | 115.36581 | 7724 ft | 257 kts | 108° |
| 2026-05-05 20:24 | -31.83766 | 115.38584 | 7449 ft | 251 kts | 107° |
| 2026-05-05 20:24 | -31.84224 | 115.40544 | 7180 ft | 247 kts | 107° |
| 2026-05-05 20:24 | -31.84680 | 115.42490 | 6913 ft | 246 kts | 107° |
| 2026-05-05 20:25 | -31.85129 | 115.44420 | 6641 ft | 242 kts | 108° |
| 2026-05-05 20:25 | -31.85575 | 115.46328 | 6378 ft | 244 kts | 107° |
| 2026-05-05 20:25 | -31.86024 | 115.48257 | 6108 ft | 243 kts | 107° |
| 2026-05-05 20:25 | -31.86468 | 115.50174 | 6026 ft | 244 kts | 107° |
| 2026-05-05 20:26 | -31.87079 | 115.52031 | 6018 ft | 244 kts | 121° |
| 2026-05-05 20:26 | -31.88189 | 115.53498 | 6018 ft | 238 kts | 144° |
| 2026-05-05 20:26 | -31.89590 | 115.54503 | 6005 ft | 240 kts | 151° |
| 2026-05-05 20:26 | -31.91075 | 115.55442 | 5676 ft | 240 kts | 151° |
| 2026-05-05 20:27 | -31.92526 | 115.56354 | 5535 ft | 231 kts | 151° |
| 2026-05-05 20:27 | -31.93899 | 115.57224 | 5441 ft | 224 kts | 151° |
| 2026-05-05 20:27 | -31.95254 | 115.58087 | 5390 ft | 220 kts | 150° |
| 2026-05-05 20:27 | -31.96603 | 115.58951 | 5309 ft | 221 kts | 150° |
| 2026-05-05 20:28 | -31.97956 | 115.59820 | 5180 ft | 221 kts | 150° |
| 2026-05-05 20:28 | -31.99293 | 115.60679 | 5077 ft | 217 kts | 150° |
| 2026-05-05 20:28 | -32.00633 | 115.61541 | 5004 ft | 219 kts | 150° |
| 2026-05-05 20:28 | -32.01968 | 115.62399 | 4915 ft | 219 kts | 150° |
| 2026-05-05 20:29 | -32.03303 | 115.63258 | 4833 ft | 218 kts | 150° |
| 2026-05-05 20:29 | -32.04638 | 115.64119 | 4750 ft | 219 kts | 149° |
| 2026-05-05 20:29 | -32.05972 | 115.64980 | 4659 ft | 218 kts | 149° |
| 2026-05-05 20:29 | -32.07301 | 115.65837 | 4592 ft | 218 kts | 150° |
| 2026-05-05 20:30 | -32.08635 | 115.66698 | 4503 ft | 219 kts | 149° |
| 2026-05-05 20:30 | -32.09973 | 115.67561 | 4415 ft | 219 kts | 149° |
| 2026-05-05 20:30 | -32.11316 | 115.68429 | 4339 ft | 220 kts | 150° |
| 2026-05-05 20:30 | -32.12645 | 115.69334 | 4254 ft | 220 kts | 144° |
| 2026-05-05 20:31 | -32.13736 | 115.70579 | 4172 ft | 218 kts | 124° |
| 2026-05-05 20:31 | -32.14332 | 115.72176 | 4096 ft | 216 kts | 103° |
| 2026-05-05 20:31 | -32.14629 | 115.73915 | 3971 ft | 216 kts | 98° |
| 2026-05-05 20:31 | -32.14877 | 115.75652 | 3846 ft | 214 kts | 98° |
| 2026-05-05 20:32 | -32.15129 | 115.77384 | 3770 ft | 214 kts | 98° |
| 2026-05-05 20:32 | -32.15386 | 115.79113 | 3724 ft | 214 kts | 98° |
| 2026-05-05 20:32 | -32.15643 | 115.80845 | 3660 ft | 214 kts | 98° |
| 2026-05-05 20:32 | -32.15904 | 115.82580 | 3586 ft | 215 kts | 98° |
| 2026-05-05 20:33 | -32.16166 | 115.84316 | 3503 ft | 215 kts | 98° |
| 2026-05-05 20:33 | -32.16427 | 115.86045 | 3425 ft | 213 kts | 98° |
| 2026-05-05 20:33 | -32.16507 | 115.87743 | 3324 ft | 201 kts | 82° |
| 2026-05-05 20:33 | -32.16026 | 115.89253 | 3213 ft | 197 kts | 56° |
| 2026-05-05 20:34 | -32.15028 | 115.90313 | 3165 ft | 198 kts | 30° |
| 2026-05-05 20:34 | -32.13713 | 115.90813 | 3126 ft | 199 kts | 13° |
| 2026-05-05 20:34 | -32.12353 | 115.91130 | 3069 ft | 199 kts | 14° |
| 2026-05-05 20:34 | -32.11016 | 115.91516 | 3023 ft | 193 kts | 17° |
| 2026-05-05 20:35 | -32.09762 | 115.91894 | 2892 ft | 181 kts | 17° |
| 2026-05-05 20:35 | -32.08555 | 115.92256 | 2650 ft | 177 kts | 17° |
| 2026-05-05 20:35 | -32.07361 | 115.92605 | 2409 ft | 174 kts | 18° |
| 2026-05-05 20:35 | -32.06230 | 115.92933 | 2176 ft | 161 kts | 19° |
| 2026-05-05 20:36 | -32.05176 | 115.93243 | 1969 ft | 154 kts | 19° |
| 2026-05-05 20:36 | -32.04141 | 115.93548 | 1747 ft | 154 kts | 19° |
| 2026-05-05 20:36 | -32.03101 | 115.93853 | 1541 ft | 154 kts | 19° |
| 2026-05-05 20:36 | -32.02076 | 115.94152 | 1318 ft | 150 kts | 19° |
| 2026-05-05 20:37 | -32.01102 | 115.94435 | 1123 ft | 137 kts | 20° |
| 2026-05-05 20:37 | -32.00498 | 115.94611 | 1006 ft | 134 kts | 22° |
| 2026-05-05 20:37 | -31.99285 | 115.94970 | 765 ft | 135 kts | 20° |
| 2026-05-05 20:37 | -31.98357 | 115.95235 | 593 ft | 141 kts | 19° |
| 2026-05-05 20:38 | -31.97402 | 115.95502 | 358 ft | 140 kts | 19° |
| 2026-05-05 20:38 | -31.96455 | 115.95783 | 210 ft | 142 kts | 19° |
| 2026-05-05 20:38 | -31.95504 | 115.96060 | 88 ft | 139 kts | 20° |
| 2026-05-05 20:38 | -31.94687 | 115.96317 | 63 ft | 90 kts | 14° |
| 2026-05-05 20:39 | -31.94399 | 115.96398 | 70 ft | 0 kts | 14° |
| 2026-05-05 20:39 | -31.94389 | 115.96401 | 70 ft | 16 kts | 14° |
| 2026-05-05 20:39 | -31.94278 | 115.96434 | 66 ft | 1 kts | 14° |
| 2026-05-05 20:39 | -31.94211 | 115.96454 | 63 ft | 20 kts | 14° |
| 2026-05-05 20:40 | -31.94105 | 115.96563 | 75 ft | 21 kts | 60° |
| 2026-05-05 20:40 | -31.94029 | 115.96717 | 64 ft | 22 kts | 59° |
| 2026-05-05 20:40 | -31.93948 | 115.96869 | 66 ft | 20 kts | 49° |
| 2026-05-05 20:40 | -31.93923 | 115.96976 | 67 ft | 10 kts | 102° |
| 2026-05-05 20:41 | -31.93936 | 115.97045 | 65 ft | 10 kts | 102° |
| 2026-05-05 20:41 | -31.93953 | 115.97132 | 67 ft | 12 kts | 104° |
| 2026-05-05 20:41 | -31.94000 | 115.97206 | 63 ft | 13 kts | 159° |
| 2026-05-05 20:41 | -31.94042 | 115.97217 | 68 ft | 1 kts | 170° |
| 2026-05-05 20:42 | -31.94055 | 115.97220 | 68 ft | 0 kts | 169° |